<?xml version="1.0" encoding="UTF-8"?>
<gpx version="1.1" creator="https://www.youtrack.es" xsi:schemaLocation="http://www.topografix.com/GPX/1/1 http://www.topografix.com/GPX/1/1/gpx.xsd http://www.garmin.com/xmlschemas/GpxExtensions/v3 http://www.garmin.com/xmlschemas/GpxExtensionsv3.xsd http://www.garmin.com/xmlschemas/TrackPointExtension/v1 http://www.garmin.com/xmlschemas/TrackPointExtensionv1.xsd" xmlns:gpxtpx="http://www.garmin.com/xmlschemas/TrackPointExtension/v1" xmlns:gpxx="http://www.garmin.com/xmlschemas/GpxExtensions/v3" xmlns:xsi="http://www.w3.org/2001/XMLSchema-instance">
  <metadata>
    <link href="https://www.youtrack.es">
      <text>YouTrack.es</text>
    </link>
    <time>2026-05-08T06:38:27Z</time>
  </metadata>
  <trk>
    <src>https://www.youtrack.es</src>
    <link href="https://www.youtrack.es/ruta/2603-margalef">
      <text>YouTrack.es</text>
    </link>
    <trkseg>
      <trkpt lat="41.284700" lon="0.755933">
        <ele>379.61</ele>
        <time>2011-07-27T08:54:30.49Z</time>
      </trkpt>
      <trkpt lat="41.284600" lon="0.756050">
        <ele>379.91</ele>
        <time>2011-07-27T08:54:31.38Z</time>
      </trkpt>
      <trkpt lat="41.284350" lon="0.756133">
        <ele>378.26</ele>
        <time>2011-07-27T08:54:33.09Z</time>
      </trkpt>
      <trkpt lat="41.284183" lon="0.756117">
        <ele>375.86</ele>
        <time>2011-07-27T08:54:34.21Z</time>
      </trkpt>
      <trkpt lat="41.283983" lon="0.756017">
        <ele>374.64</ele>
        <time>2011-07-27T08:54:35.63Z</time>
      </trkpt>
      <trkpt lat="41.283850" lon="0.755933">
        <ele>373.49</ele>
        <time>2011-07-27T08:54:36.62Z</time>
      </trkpt>
      <trkpt lat="41.283550" lon="0.755667">
        <ele>372.51</ele>
        <time>2011-07-27T08:54:39.02Z</time>
      </trkpt>
      <trkpt lat="41.283400" lon="0.755383">
        <ele>373.20</ele>
        <time>2011-07-27T08:54:40.76Z</time>
      </trkpt>
      <trkpt lat="41.283300" lon="0.755050">
        <ele>373.99</ele>
        <time>2011-07-27T08:54:42.55Z</time>
      </trkpt>
      <trkpt lat="41.283267" lon="0.754800">
        <ele>374.99</ele>
        <time>2011-07-27T08:54:43.83Z</time>
      </trkpt>
      <trkpt lat="41.283250" lon="0.754600">
        <ele>375.77</ele>
        <time>2011-07-27T08:54:44.83Z</time>
      </trkpt>
      <trkpt lat="41.283317" lon="0.754017">
        <ele>376.66</ele>
        <time>2011-07-27T08:54:47.79Z</time>
      </trkpt>
      <trkpt lat="41.283333" lon="0.753717">
        <ele>374.22</ele>
        <time>2011-07-27T08:54:49.30Z</time>
      </trkpt>
      <trkpt lat="41.283350" lon="0.753433">
        <ele>372.11</ele>
        <time>2011-07-27T08:54:50.72Z</time>
      </trkpt>
      <trkpt lat="41.283450" lon="0.753217">
        <ele>372.94</ele>
        <time>2011-07-27T08:54:51.99Z</time>
      </trkpt>
      <trkpt lat="41.283633" lon="0.752967">
        <ele>374.95</ele>
        <time>2011-07-27T08:54:53.74Z</time>
      </trkpt>
      <trkpt lat="41.283767" lon="0.752783">
        <ele>375.60</ele>
        <time>2011-07-27T08:54:55.03Z</time>
      </trkpt>
      <trkpt lat="41.283917" lon="0.752567">
        <ele>375.55</ele>
        <time>2011-07-27T08:54:56.50Z</time>
      </trkpt>
      <trkpt lat="41.284050" lon="0.752450">
        <ele>375.78</ele>
        <time>2011-07-27T08:54:57.56Z</time>
      </trkpt>
      <trkpt lat="41.284167" lon="0.752400">
        <ele>376.09</ele>
        <time>2011-07-27T08:54:58.38Z</time>
      </trkpt>
      <trkpt lat="41.284250" lon="0.752333">
        <ele>378.04</ele>
        <time>2011-07-27T08:54:59.03Z</time>
      </trkpt>
      <trkpt lat="41.284317" lon="0.752167">
        <ele>378.29</ele>
        <time>2011-07-27T08:54:59.97Z</time>
      </trkpt>
      <trkpt lat="41.284550" lon="0.751950">
        <ele>382.57</ele>
        <time>2011-07-27T08:55:01.87Z</time>
      </trkpt>
      <trkpt lat="41.284767" lon="0.751567">
        <ele>384.84</ele>
        <time>2011-07-27T08:55:04.27Z</time>
      </trkpt>
      <trkpt lat="41.284800" lon="0.751267">
        <ele>385.51</ele>
        <time>2011-07-27T08:55:05.79Z</time>
      </trkpt>
      <trkpt lat="41.284667" lon="0.751133">
        <ele>382.11</ele>
        <time>2011-07-27T08:55:06.90Z</time>
      </trkpt>
      <trkpt lat="41.284533" lon="0.751033">
        <ele>378.84</ele>
        <time>2011-07-27T08:55:07.93Z</time>
      </trkpt>
      <trkpt lat="41.284500" lon="0.750600">
        <ele>378.25</ele>
        <time>2011-07-27T08:55:10.11Z</time>
      </trkpt>
      <trkpt lat="41.284433" lon="0.750300">
        <ele>376.48</ele>
        <time>2011-07-27T08:55:11.67Z</time>
      </trkpt>
      <trkpt lat="41.284250" lon="0.750000">
        <ele>370.61</ele>
        <time>2011-07-27T08:55:13.61Z</time>
      </trkpt>
      <trkpt lat="41.283883" lon="0.749717">
        <ele>369.17</ele>
        <time>2011-07-27T08:55:16.44Z</time>
      </trkpt>
      <trkpt lat="41.283633" lon="0.749683">
        <ele>369.67</ele>
        <time>2011-07-27T08:55:18.11Z</time>
      </trkpt>
      <trkpt lat="41.283267" lon="0.749700">
        <ele>371.12</ele>
        <time>2011-07-27T08:55:20.55Z</time>
      </trkpt>
      <trkpt lat="41.282983" lon="0.749683">
        <ele>371.36</ele>
        <time>2011-07-27T08:55:22.45Z</time>
      </trkpt>
      <trkpt lat="41.282733" lon="0.749533">
        <ele>369.14</ele>
        <time>2011-07-27T08:55:24.28Z</time>
      </trkpt>
      <trkpt lat="41.282600" lon="0.749500">
        <ele>368.51</ele>
        <time>2011-07-27T08:55:25.18Z</time>
      </trkpt>
      <trkpt lat="41.282483" lon="0.749533">
        <ele>369.51</ele>
        <time>2011-07-27T08:55:25.98Z</time>
      </trkpt>
      <trkpt lat="41.282333" lon="0.749633">
        <ele>371.61</ele>
        <time>2011-07-27T08:55:27.10Z</time>
      </trkpt>
      <trkpt lat="41.282150" lon="0.749617">
        <ele>371.80</ele>
        <time>2011-07-27T08:55:28.32Z</time>
      </trkpt>
      <trkpt lat="41.281917" lon="0.749600">
        <ele>371.89</ele>
        <time>2011-07-27T08:55:29.87Z</time>
      </trkpt>
      <trkpt lat="41.281383" lon="0.749533">
        <ele>372.54</ele>
        <time>2011-07-27T08:55:33.45Z</time>
      </trkpt>
      <trkpt lat="41.281217" lon="0.749333">
        <ele>367.55</ele>
        <time>2011-07-27T08:55:34.94Z</time>
      </trkpt>
      <trkpt lat="41.281050" lon="0.749167">
        <ele>363.51</ele>
        <time>2011-07-27T08:55:36.33Z</time>
      </trkpt>
      <trkpt lat="41.280900" lon="0.749017">
        <ele>363.62</ele>
        <time>2011-07-27T08:55:37.58Z</time>
      </trkpt>
      <trkpt lat="41.280667" lon="0.748550">
        <ele>363.61</ele>
        <time>2011-07-27T08:55:40.39Z</time>
      </trkpt>
      <trkpt lat="41.280550" lon="0.748133">
        <ele>363.36</ele>
        <time>2011-07-27T08:55:42.62Z</time>
      </trkpt>
      <trkpt lat="41.280567" lon="0.747850">
        <ele>364.05</ele>
        <time>2011-07-27T08:55:44.04Z</time>
      </trkpt>
      <trkpt lat="41.280550" lon="0.747667">
        <ele>364.55</ele>
        <time>2011-07-27T08:55:44.97Z</time>
      </trkpt>
      <trkpt lat="41.280650" lon="0.747367">
        <ele>365.11</ele>
        <time>2011-07-27T08:55:46.61Z</time>
      </trkpt>
      <trkpt lat="41.280733" lon="0.747150">
        <ele>364.11</ele>
        <time>2011-07-27T08:55:47.83Z</time>
      </trkpt>
      <trkpt lat="41.280750" lon="0.746967">
        <ele>363.15</ele>
        <time>2011-07-27T08:55:48.76Z</time>
      </trkpt>
      <trkpt lat="41.280800" lon="0.746783">
        <ele>361.42</ele>
        <time>2011-07-27T08:55:49.74Z</time>
      </trkpt>
      <trkpt lat="41.280967" lon="0.746517">
        <ele>362.70</ele>
        <time>2011-07-27T08:55:51.47Z</time>
      </trkpt>
      <trkpt lat="41.281183" lon="0.746317">
        <ele>364.67</ele>
        <time>2011-07-27T08:55:53.23Z</time>
      </trkpt>
      <trkpt lat="41.281400" lon="0.746167">
        <ele>365.04</ele>
        <time>2011-07-27T08:55:54.86Z</time>
      </trkpt>
      <trkpt lat="41.281617" lon="0.746000">
        <ele>364.26</ele>
        <time>2011-07-27T08:55:56.53Z</time>
      </trkpt>
      <trkpt lat="41.281750" lon="0.745900">
        <ele>363.66</ele>
        <time>2011-07-27T08:55:57.55Z</time>
      </trkpt>
      <trkpt lat="41.282350" lon="0.745850">
        <ele>361.59</ele>
        <time>2011-07-27T08:56:01.55Z</time>
      </trkpt>
      <trkpt lat="41.282633" lon="0.745867">
        <ele>360.82</ele>
        <time>2011-07-27T08:56:03.44Z</time>
      </trkpt>
      <trkpt lat="41.283167" lon="0.746000">
        <ele>359.78</ele>
        <time>2011-07-27T08:56:07.06Z</time>
      </trkpt>
      <trkpt lat="41.283283" lon="0.746033">
        <ele>359.41</ele>
        <time>2011-07-27T08:56:07.86Z</time>
      </trkpt>
      <trkpt lat="41.283683" lon="0.746083">
        <ele>358.41</ele>
        <time>2011-07-27T08:56:10.53Z</time>
      </trkpt>
      <trkpt lat="41.283900" lon="0.746000">
        <ele>357.72</ele>
        <time>2011-07-27T08:56:12.04Z</time>
      </trkpt>
      <trkpt lat="41.284117" lon="0.745933">
        <ele>356.75</ele>
        <time>2011-07-27T08:56:13.52Z</time>
      </trkpt>
      <trkpt lat="41.284817" lon="0.745700">
        <ele>356.56</ele>
        <time>2011-07-27T08:56:18.33Z</time>
      </trkpt>
      <trkpt lat="41.285467" lon="0.745267">
        <ele>362.82</ele>
        <time>2011-07-27T08:56:23.18Z</time>
      </trkpt>
      <trkpt lat="41.286067" lon="0.744617">
        <ele>376.88</ele>
        <time>2011-07-27T08:56:28.34Z</time>
      </trkpt>
      <trkpt lat="41.286333" lon="0.744083">
        <ele>386.05</ele>
        <time>2011-07-27T08:56:31.55Z</time>
      </trkpt>
      <trkpt lat="41.286483" lon="0.743717">
        <ele>390.80</ele>
        <time>2011-07-27T08:56:33.64Z</time>
      </trkpt>
      <trkpt lat="41.286550" lon="0.743267">
        <ele>390.83</ele>
        <time>2011-07-27T08:56:35.93Z</time>
      </trkpt>
      <trkpt lat="41.286550" lon="0.743087">
        <ele>390.13</ele>
        <time>2011-07-27T08:56:36.84Z</time>
      </trkpt>
      <trkpt lat="41.286380" lon="0.743014">
        <ele>383.15</ele>
        <time>2011-07-27T08:56:38.03Z</time>
      </trkpt>
      <trkpt lat="41.286100" lon="0.742533">
        <ele>371.61</ele>
        <time>2011-07-27T08:56:41.08Z</time>
      </trkpt>
      <trkpt lat="41.285917" lon="0.742400">
        <ele>367.01</ele>
        <time>2011-07-27T08:56:42.47Z</time>
      </trkpt>
      <trkpt lat="41.285583" lon="0.742383">
        <ele>361.32</ele>
        <time>2011-07-27T08:56:44.69Z</time>
      </trkpt>
      <trkpt lat="41.285217" lon="0.742367">
        <ele>357.02</ele>
        <time>2011-07-27T08:56:47.13Z</time>
      </trkpt>
      <trkpt lat="41.284950" lon="0.742483">
        <ele>355.27</ele>
        <time>2011-07-27T08:56:49.01Z</time>
      </trkpt>
      <trkpt lat="41.284550" lon="0.742617">
        <ele>360.16</ele>
        <time>2011-07-27T08:56:51.76Z</time>
      </trkpt>
      <trkpt lat="41.283767" lon="0.742767">
        <ele>367.54</ele>
        <time>2011-07-27T08:56:57.03Z</time>
      </trkpt>
      <trkpt lat="41.283350" lon="0.742883">
        <ele>372.34</ele>
        <time>2011-07-27T08:56:59.87Z</time>
      </trkpt>
      <trkpt lat="41.283033" lon="0.742800">
        <ele>371.31</ele>
        <time>2011-07-27T08:57:02.02Z</time>
      </trkpt>
      <trkpt lat="41.282650" lon="0.742783">
        <ele>372.30</ele>
        <time>2011-07-27T08:57:04.58Z</time>
      </trkpt>
      <trkpt lat="41.282150" lon="0.742850">
        <ele>379.06</ele>
        <time>2011-07-27T08:57:07.93Z</time>
      </trkpt>
      <trkpt lat="41.281883" lon="0.742833">
        <ele>381.65</ele>
        <time>2011-07-27T08:57:09.71Z</time>
      </trkpt>
      <trkpt lat="41.281833" lon="0.742567">
        <ele>376.92</ele>
        <time>2011-07-27T08:57:11.09Z</time>
      </trkpt>
      <trkpt lat="41.281783" lon="0.742233">
        <ele>374.11</ele>
        <time>2011-07-27T08:57:12.79Z</time>
      </trkpt>
      <trkpt lat="41.281700" lon="0.742033">
        <ele>374.45</ele>
        <time>2011-07-27T08:57:13.94Z</time>
      </trkpt>
      <trkpt lat="41.281583" lon="0.741717">
        <ele>374.26</ele>
        <time>2011-07-27T08:57:15.70Z</time>
      </trkpt>
      <trkpt lat="41.281650" lon="0.741450">
        <ele>370.32</ele>
        <time>2011-07-27T08:57:17.11Z</time>
      </trkpt>
      <trkpt lat="41.281767" lon="0.741033">
        <ele>363.18</ele>
        <time>2011-07-27T08:57:19.34Z</time>
      </trkpt>
      <trkpt lat="41.281883" lon="0.740767">
        <ele>359.45</ele>
        <time>2011-07-27T08:57:20.88Z</time>
      </trkpt>
      <trkpt lat="41.281833" lon="0.740450">
        <ele>358.27</ele>
        <time>2011-07-27T08:57:22.50Z</time>
      </trkpt>
      <trkpt lat="41.281700" lon="0.740050">
        <ele>354.11</ele>
        <time>2011-07-27T08:57:24.70Z</time>
      </trkpt>
      <trkpt lat="41.281550" lon="0.739733">
        <ele>353.27</ele>
        <time>2011-07-27T08:57:26.57Z</time>
      </trkpt>
      <trkpt lat="41.281400" lon="0.739567">
        <ele>354.20</ele>
        <time>2011-07-27T08:57:27.87Z</time>
      </trkpt>
      <trkpt lat="41.281636" lon="0.739359">
        <ele>349.52</ele>
        <time>2011-07-27T08:57:29.76Z</time>
      </trkpt>
      <trkpt lat="41.281483" lon="0.739267">
        <ele>350.73</ele>
        <time>2011-07-27T08:57:30.88Z</time>
      </trkpt>
      <trkpt lat="41.281467" lon="0.739017">
        <ele>350.31</ele>
        <time>2011-07-27T08:57:32.14Z</time>
      </trkpt>
      <trkpt lat="41.281367" lon="0.738783">
        <ele>351.54</ele>
        <time>2011-07-27T08:57:33.49Z</time>
      </trkpt>
      <trkpt lat="41.281367" lon="0.738583">
        <ele>351.74</ele>
        <time>2011-07-27T08:57:34.49Z</time>
      </trkpt>
      <trkpt lat="41.281550" lon="0.737733">
        <ele>348.89</ele>
        <time>2011-07-27T08:57:38.92Z</time>
      </trkpt>
      <trkpt lat="41.281700" lon="0.737233">
        <ele>346.49</ele>
        <time>2011-07-27T08:57:41.61Z</time>
      </trkpt>
      <trkpt lat="41.281833" lon="0.736700">
        <ele>347.89</ele>
        <time>2011-07-27T08:57:44.43Z</time>
      </trkpt>
      <trkpt lat="41.281700" lon="0.736300">
        <ele>344.83</ele>
        <time>2011-07-27T08:57:46.62Z</time>
      </trkpt>
      <trkpt lat="41.281567" lon="0.735900">
        <ele>344.38</ele>
        <time>2011-07-27T08:57:48.81Z</time>
      </trkpt>
      <trkpt lat="41.281467" lon="0.735567">
        <ele>346.18</ele>
        <time>2011-07-27T08:57:50.61Z</time>
      </trkpt>
      <trkpt lat="41.281300" lon="0.735417">
        <ele>346.77</ele>
        <time>2011-07-27T08:57:51.95Z</time>
      </trkpt>
      <trkpt lat="41.280717" lon="0.734950">
        <ele>342.13</ele>
        <time>2011-07-27T08:57:56.49Z</time>
      </trkpt>
      <trkpt lat="41.280550" lon="0.734867">
        <ele>342.22</ele>
        <time>2011-07-27T08:57:57.68Z</time>
      </trkpt>
      <trkpt lat="41.280283" lon="0.734867">
        <ele>342.71</ele>
        <time>2011-07-27T08:57:59.46Z</time>
      </trkpt>
      <trkpt lat="41.280134" lon="0.734850">
        <ele>343.03</ele>
        <time>2011-07-27T08:58:00.45Z</time>
      </trkpt>
      <trkpt lat="41.280083" lon="0.734767">
        <ele>342.77</ele>
        <time>2011-07-27T08:58:00.99Z</time>
      </trkpt>
      <trkpt lat="41.280183" lon="0.734600">
        <ele>341.89</ele>
        <time>2011-07-27T08:58:02.06Z</time>
      </trkpt>
      <trkpt lat="41.280167" lon="0.734467">
        <ele>341.35</ele>
        <time>2011-07-27T08:58:02.73Z</time>
      </trkpt>
      <trkpt lat="41.280117" lon="0.734267">
        <ele>340.45</ele>
        <time>2011-07-27T08:58:03.79Z</time>
      </trkpt>
      <trkpt lat="41.279833" lon="0.734300">
        <ele>342.04</ele>
        <time>2011-07-27T08:58:05.69Z</time>
      </trkpt>
      <trkpt lat="41.279450" lon="0.734283">
        <ele>345.24</ele>
        <time>2011-07-27T08:58:08.25Z</time>
      </trkpt>
      <trkpt lat="41.279217" lon="0.734233">
        <ele>347.32</ele>
        <time>2011-07-27T08:58:09.82Z</time>
      </trkpt>
      <trkpt lat="41.279067" lon="0.734200">
        <ele>348.46</ele>
        <time>2011-07-27T08:58:10.83Z</time>
      </trkpt>
      <trkpt lat="41.278800" lon="0.734050">
        <ele>352.76</ele>
        <time>2011-07-27T08:58:12.76Z</time>
      </trkpt>
      <trkpt lat="41.278433" lon="0.733917">
        <ele>357.11</ele>
        <time>2011-07-27T08:58:15.30Z</time>
      </trkpt>
      <trkpt lat="41.278300" lon="0.733717">
        <ele>360.91</ele>
        <time>2011-07-27T08:58:16.64Z</time>
      </trkpt>
      <trkpt lat="41.278133" lon="0.733367">
        <ele>365.42</ele>
        <time>2011-07-27T08:58:18.72Z</time>
      </trkpt>
      <trkpt lat="41.278050" lon="0.733117">
        <ele>364.85</ele>
        <time>2011-07-27T08:58:20.08Z</time>
      </trkpt>
      <trkpt lat="41.278000" lon="0.732917">
        <ele>364.16</ele>
        <time>2011-07-27T08:58:21.14Z</time>
      </trkpt>
      <trkpt lat="41.278083" lon="0.732817">
        <ele>365.52</ele>
        <time>2011-07-27T08:58:21.89Z</time>
      </trkpt>
      <trkpt lat="41.278233" lon="0.732667">
        <ele>368.11</ele>
        <time>2011-07-27T08:58:23.14Z</time>
      </trkpt>
      <trkpt lat="41.278450" lon="0.732717">
        <ele>370.88</ele>
        <time>2011-07-27T08:58:24.61Z</time>
      </trkpt>
      <trkpt lat="41.278583" lon="0.732650">
        <ele>372.22</ele>
        <time>2011-07-27T08:58:25.55Z</time>
      </trkpt>
      <trkpt lat="41.278650" lon="0.732433">
        <ele>372.74</ele>
        <time>2011-07-27T08:58:26.73Z</time>
      </trkpt>
      <trkpt lat="41.278733" lon="0.732433">
        <ele>373.77</ele>
        <time>2011-07-27T08:58:27.28Z</time>
      </trkpt>
      <trkpt lat="41.278833" lon="0.732317">
        <ele>373.81</ele>
        <time>2011-07-27T08:58:28.17Z</time>
      </trkpt>
      <trkpt lat="41.278917" lon="0.732217">
        <ele>374.11</ele>
        <time>2011-07-27T08:58:28.92Z</time>
      </trkpt>
      <trkpt lat="41.279150" lon="0.732200">
        <ele>377.31</ele>
        <time>2011-07-27T08:58:30.47Z</time>
      </trkpt>
      <trkpt lat="41.279250" lon="0.732117">
        <ele>378.23</ele>
        <time>2011-07-27T08:58:31.26Z</time>
      </trkpt>
      <trkpt lat="41.279333" lon="0.732117">
        <ele>379.30</ele>
        <time>2011-07-27T08:58:31.81Z</time>
      </trkpt>
      <trkpt lat="41.279400" lon="0.732017">
        <ele>379.75</ele>
        <time>2011-07-27T08:58:32.48Z</time>
      </trkpt>
      <trkpt lat="41.279467" lon="0.731667">
        <ele>379.41</ele>
        <time>2011-07-27T08:58:34.29Z</time>
      </trkpt>
      <trkpt lat="41.279633" lon="0.731467">
        <ele>380.29</ele>
        <time>2011-07-27T08:58:35.79Z</time>
      </trkpt>
      <trkpt lat="41.279850" lon="0.731233">
        <ele>382.65</ele>
        <time>2011-07-27T08:58:37.65Z</time>
      </trkpt>
      <trkpt lat="41.279983" lon="0.730900">
        <ele>383.98</ele>
        <time>2011-07-27T08:58:39.54Z</time>
      </trkpt>
      <trkpt lat="41.280150" lon="0.730750">
        <ele>386.17</ele>
        <time>2011-07-27T08:58:40.88Z</time>
      </trkpt>
      <trkpt lat="41.280333" lon="0.730483">
        <ele>387.25</ele>
        <time>2011-07-27T08:58:42.69Z</time>
      </trkpt>
      <trkpt lat="41.280600" lon="0.730333">
        <ele>392.56</ele>
        <time>2011-07-27T08:58:44.62Z</time>
      </trkpt>
      <trkpt lat="41.280867" lon="0.730200">
        <ele>398.81</ele>
        <time>2011-07-27T08:58:46.52Z</time>
      </trkpt>
      <trkpt lat="41.280850" lon="0.730000">
        <ele>396.51</ele>
        <time>2011-07-27T08:58:47.53Z</time>
      </trkpt>
      <trkpt lat="41.280850" lon="0.729800">
        <ele>398.10</ele>
        <time>2011-07-27T08:58:48.54Z</time>
      </trkpt>
      <trkpt lat="41.280717" lon="0.729600">
        <ele>394.83</ele>
        <time>2011-07-27T08:58:49.87Z</time>
      </trkpt>
      <trkpt lat="41.280767" lon="0.729400">
        <ele>397.88</ele>
        <time>2011-07-27T08:58:50.93Z</time>
      </trkpt>
      <trkpt lat="41.280833" lon="0.729117">
        <ele>402.18</ele>
        <time>2011-07-27T08:58:52.41Z</time>
      </trkpt>
      <trkpt lat="41.280817" lon="0.729050">
        <ele>401.61</ele>
        <time>2011-07-27T08:58:52.77Z</time>
      </trkpt>
      <trkpt lat="41.280967" lon="0.728783">
        <ele>408.29</ele>
        <time>2011-07-27T08:58:54.44Z</time>
      </trkpt>
      <trkpt lat="41.281167" lon="0.728483">
        <ele>418.53</ele>
        <time>2011-07-27T08:58:56.45Z</time>
      </trkpt>
      <trkpt lat="41.281217" lon="0.728317">
        <ele>422.31</ele>
        <time>2011-07-27T08:58:57.34Z</time>
      </trkpt>
      <trkpt lat="41.281200" lon="0.728017">
        <ele>425.64</ele>
        <time>2011-07-27T08:58:58.85Z</time>
      </trkpt>
      <trkpt lat="41.281183" lon="0.727700">
        <ele>429.16</ele>
        <time>2011-07-27T08:59:00.44Z</time>
      </trkpt>
      <trkpt lat="41.281150" lon="0.727450">
        <ele>431.01</ele>
        <time>2011-07-27T08:59:01.71Z</time>
      </trkpt>
      <trkpt lat="41.281133" lon="0.727133">
        <ele>435.41</ele>
        <time>2011-07-27T08:59:03.30Z</time>
      </trkpt>
      <trkpt lat="41.281100" lon="0.726783">
        <ele>439.60</ele>
        <time>2011-07-27T08:59:05.07Z</time>
      </trkpt>
      <trkpt lat="41.281033" lon="0.726433">
        <ele>438.12</ele>
        <time>2011-07-27T08:59:06.88Z</time>
      </trkpt>
      <trkpt lat="41.280933" lon="0.726467">
        <ele>433.27</ele>
        <time>2011-07-27T08:59:07.57Z</time>
      </trkpt>
      <trkpt lat="41.280933" lon="0.726267">
        <ele>433.36</ele>
        <time>2011-07-27T08:59:08.57Z</time>
      </trkpt>
      <trkpt lat="41.280900" lon="0.725983">
        <ele>431.96</ele>
        <time>2011-07-27T08:59:10.01Z</time>
      </trkpt>
      <trkpt lat="41.280933" lon="0.725633">
        <ele>432.75</ele>
        <time>2011-07-27T08:59:11.78Z</time>
      </trkpt>
      <trkpt lat="41.280950" lon="0.725433">
        <ele>432.61</ele>
        <time>2011-07-27T08:59:12.79Z</time>
      </trkpt>
      <trkpt lat="41.280967" lon="0.725250">
        <ele>432.43</ele>
        <time>2011-07-27T08:59:13.71Z</time>
      </trkpt>
      <trkpt lat="41.280917" lon="0.725100">
        <ele>430.12</ele>
        <time>2011-07-27T08:59:14.53Z</time>
      </trkpt>
      <trkpt lat="41.280883" lon="0.725000">
        <ele>428.79</ele>
        <time>2011-07-27T08:59:15.08Z</time>
      </trkpt>
      <trkpt lat="41.280833" lon="0.724833">
        <ele>424.01</ele>
        <time>2011-07-27T08:59:15.98Z</time>
      </trkpt>
      <trkpt lat="41.280800" lon="0.724667">
        <ele>419.31</ele>
        <time>2011-07-27T08:59:16.84Z</time>
      </trkpt>
      <trkpt lat="41.280733" lon="0.724467">
        <ele>413.17</ele>
        <time>2011-07-27T08:59:17.94Z</time>
      </trkpt>
      <trkpt lat="41.280650" lon="0.724367">
        <ele>408.48</ele>
        <time>2011-07-27T08:59:18.69Z</time>
      </trkpt>
      <trkpt lat="41.280583" lon="0.724200">
        <ele>404.15</ele>
        <time>2011-07-27T08:59:19.63Z</time>
      </trkpt>
      <trkpt lat="41.280567" lon="0.724050">
        <ele>402.58</ele>
        <time>2011-07-27T08:59:20.39Z</time>
      </trkpt>
      <trkpt lat="41.280450" lon="0.723783">
        <ele>397.11</ele>
        <time>2011-07-27T08:59:21.94Z</time>
      </trkpt>
      <trkpt lat="41.280383" lon="0.723633">
        <ele>394.45</ele>
        <time>2011-07-27T08:59:22.82Z</time>
      </trkpt>
      <trkpt lat="41.280350" lon="0.723517">
        <ele>392.99</ele>
        <time>2011-07-27T08:59:23.44Z</time>
      </trkpt>
      <trkpt lat="41.280283" lon="0.723417">
        <ele>390.53</ele>
        <time>2011-07-27T08:59:24.11Z</time>
      </trkpt>
      <trkpt lat="41.280200" lon="0.723267">
        <ele>388.16</ele>
        <time>2011-07-27T08:59:25.04Z</time>
      </trkpt>
      <trkpt lat="41.280167" lon="0.723317">
        <ele>387.31</ele>
        <time>2011-07-27T08:59:25.38Z</time>
      </trkpt>
      <trkpt lat="41.280233" lon="0.723433">
        <ele>389.32</ele>
        <time>2011-07-27T08:59:26.10Z</time>
      </trkpt>
      <trkpt lat="41.280200" lon="0.723483">
        <ele>388.71</ele>
        <time>2011-07-27T08:59:26.44Z</time>
      </trkpt>
      <trkpt lat="41.280017" lon="0.723350">
        <ele>383.54</ele>
        <time>2011-07-27T08:59:27.83Z</time>
      </trkpt>
      <trkpt lat="41.279800" lon="0.723233">
        <ele>379.10</ele>
        <time>2011-07-27T08:59:29.39Z</time>
      </trkpt>
      <trkpt lat="41.280050" lon="0.723583">
        <ele>385.05</ele>
        <time>2011-07-27T08:59:31.81Z</time>
      </trkpt>
      <trkpt lat="41.280233" lon="0.723983">
        <ele>391.82</ele>
        <time>2011-07-27T08:59:34.15Z</time>
      </trkpt>
      <trkpt lat="41.280267" lon="0.724350">
        <ele>393.50</ele>
        <time>2011-07-27T08:59:36.01Z</time>
      </trkpt>
      <trkpt lat="41.280283" lon="0.724467">
        <ele>393.95</ele>
        <time>2011-07-27T08:59:36.60Z</time>
      </trkpt>
      <trkpt lat="41.280283" lon="0.724633">
        <ele>393.79</ele>
        <time>2011-07-27T08:59:37.43Z</time>
      </trkpt>
      <trkpt lat="41.280100" lon="0.724700">
        <ele>384.46</ele>
        <time>2011-07-27T08:59:38.70Z</time>
      </trkpt>
      <trkpt lat="41.279383" lon="0.724883">
        <ele>349.49</ele>
        <time>2011-07-27T08:59:43.57Z</time>
      </trkpt>
      <trkpt lat="41.279183" lon="0.724900">
        <ele>340.11</ele>
        <time>2011-07-27T08:59:44.90Z</time>
      </trkpt>
      <trkpt lat="41.279033" lon="0.725050">
        <ele>336.53</ele>
        <time>2011-07-27T08:59:46.15Z</time>
      </trkpt>
      <trkpt lat="41.278850" lon="0.725167">
        <ele>334.71</ele>
        <time>2011-07-27T08:59:47.51Z</time>
      </trkpt>
      <trkpt lat="41.278717" lon="0.725233">
        <ele>333.88</ele>
        <time>2011-07-27T08:59:48.45Z</time>
      </trkpt>
      <trkpt lat="41.278583" lon="0.725367">
        <ele>333.52</ele>
        <time>2011-07-27T08:59:49.57Z</time>
      </trkpt>
      <trkpt lat="41.278433" lon="0.725750">
        <ele>335.22</ele>
        <time>2011-07-27T08:59:51.73Z</time>
      </trkpt>
      <trkpt lat="41.278383" lon="0.725883">
        <ele>336.06</ele>
        <time>2011-07-27T08:59:52.48Z</time>
      </trkpt>
      <trkpt lat="41.278400" lon="0.726150">
        <ele>336.65</ele>
        <time>2011-07-27T08:59:53.82Z</time>
      </trkpt>
      <trkpt lat="41.278350" lon="0.726283">
        <ele>337.10</ele>
        <time>2011-07-27T08:59:54.57Z</time>
      </trkpt>
      <trkpt lat="41.278167" lon="0.726400">
        <ele>339.58</ele>
        <time>2011-07-27T08:59:55.92Z</time>
      </trkpt>
      <trkpt lat="41.278067" lon="0.726467">
        <ele>341.03</ele>
        <time>2011-07-27T08:59:56.67Z</time>
      </trkpt>
      <trkpt lat="41.277983" lon="0.726633">
        <ele>342.81</ele>
        <time>2011-07-27T08:59:57.67Z</time>
      </trkpt>
      <trkpt lat="41.277800" lon="0.726867">
        <ele>346.42</ele>
        <time>2011-07-27T08:59:59.36Z</time>
      </trkpt>
      <trkpt lat="41.277617" lon="0.726967">
        <ele>349.80</ele>
        <time>2011-07-27T09:00:00.68Z</time>
      </trkpt>
      <trkpt lat="41.277417" lon="0.726983">
        <ele>352.71</ele>
        <time>2011-07-27T09:00:02.02Z</time>
      </trkpt>
      <trkpt lat="41.277233" lon="0.727000">
        <ele>354.64</ele>
        <time>2011-07-27T09:00:03.25Z</time>
      </trkpt>
      <trkpt lat="41.277200" lon="0.726933">
        <ele>354.44</ele>
        <time>2011-07-27T09:00:03.65Z</time>
      </trkpt>
      <trkpt lat="41.277200" lon="0.726767">
        <ele>353.24</ele>
        <time>2011-07-27T09:00:04.48Z</time>
      </trkpt>
      <trkpt lat="41.277167" lon="0.726600">
        <ele>352.33</ele>
        <time>2011-07-27T09:00:05.34Z</time>
      </trkpt>
      <trkpt lat="41.277100" lon="0.726583">
        <ele>352.72</ele>
        <time>2011-07-27T09:00:05.80Z</time>
      </trkpt>
      <trkpt lat="41.277050" lon="0.726700">
        <ele>354.03</ele>
        <time>2011-07-27T09:00:06.47Z</time>
      </trkpt>
      <trkpt lat="41.277050" lon="0.726850">
        <ele>355.24</ele>
        <time>2011-07-27T09:00:07.23Z</time>
      </trkpt>
      <trkpt lat="41.276983" lon="0.726950">
        <ele>356.64</ele>
        <time>2011-07-27T09:00:07.90Z</time>
      </trkpt>
      <trkpt lat="41.276900" lon="0.727067">
        <ele>358.46</ele>
        <time>2011-07-27T09:00:08.70Z</time>
      </trkpt>
      <trkpt lat="41.276850" lon="0.727300">
        <ele>360.90</ele>
        <time>2011-07-27T09:00:09.92Z</time>
      </trkpt>
      <trkpt lat="41.276633" lon="0.727417">
        <ele>364.52</ele>
        <time>2011-07-27T09:00:11.48Z</time>
      </trkpt>
      <trkpt lat="41.276417" lon="0.727500">
        <ele>367.71</ele>
        <time>2011-07-27T09:00:12.98Z</time>
      </trkpt>
      <trkpt lat="41.276333" lon="0.727567">
        <ele>369.50</ele>
        <time>2011-07-27T09:00:13.63Z</time>
      </trkpt>
      <trkpt lat="41.276317" lon="0.727800">
        <ele>372.69</ele>
        <time>2011-07-27T09:00:14.80Z</time>
      </trkpt>
      <trkpt lat="41.276100" lon="0.728200">
        <ele>380.90</ele>
        <time>2011-07-27T09:00:17.27Z</time>
      </trkpt>
      <trkpt lat="41.275933" lon="0.728400">
        <ele>385.84</ele>
        <time>2011-07-27T09:00:18.77Z</time>
      </trkpt>
      <trkpt lat="41.275900" lon="0.728700">
        <ele>388.19</ele>
        <time>2011-07-27T09:00:20.29Z</time>
      </trkpt>
      <trkpt lat="41.275683" lon="0.729067">
        <ele>391.69</ele>
        <time>2011-07-27T09:00:22.63Z</time>
      </trkpt>
      <trkpt lat="41.275517" lon="0.729083">
        <ele>391.07</ele>
        <time>2011-07-27T09:00:23.74Z</time>
      </trkpt>
      <trkpt lat="41.275300" lon="0.729100">
        <ele>390.48</ele>
        <time>2011-07-27T09:00:25.19Z</time>
      </trkpt>
      <trkpt lat="41.275133" lon="0.729050">
        <ele>389.23</ele>
        <time>2011-07-27T09:00:26.33Z</time>
      </trkpt>
      <trkpt lat="41.275067" lon="0.729083">
        <ele>389.27</ele>
        <time>2011-07-27T09:00:26.80Z</time>
      </trkpt>
      <trkpt lat="41.275050" lon="0.729300">
        <ele>391.11</ele>
        <time>2011-07-27T09:00:27.89Z</time>
      </trkpt>
      <trkpt lat="41.274944" lon="0.729488">
        <ele>392.81</ele>
        <time>2011-07-27T09:00:29.07Z</time>
      </trkpt>
      <trkpt lat="41.274825" lon="0.729655">
        <ele>395.03</ele>
        <time>2011-07-27T09:00:30.22Z</time>
      </trkpt>
      <trkpt lat="41.274581" lon="0.729751">
        <ele>397.92</ele>
        <time>2011-07-27T09:00:31.92Z</time>
      </trkpt>
      <trkpt lat="41.274264" lon="0.729708">
        <ele>399.35</ele>
        <time>2011-07-27T09:00:34.04Z</time>
      </trkpt>
      <trkpt lat="41.274045" lon="0.729786">
        <ele>403.73</ele>
        <time>2011-07-27T09:00:35.56Z</time>
      </trkpt>
      <trkpt lat="41.273876" lon="0.729970">
        <ele>411.09</ele>
        <time>2011-07-27T09:00:37.01Z</time>
      </trkpt>
      <trkpt lat="41.273646" lon="0.730251">
        <ele>421.76</ele>
        <time>2011-07-27T09:00:39.09Z</time>
      </trkpt>
      <trkpt lat="41.273551" lon="0.730534">
        <ele>430.02</ele>
        <time>2011-07-27T09:00:40.65Z</time>
      </trkpt>
      <trkpt lat="41.273442" lon="0.730805">
        <ele>438.85</ele>
        <time>2011-07-27T09:00:42.19Z</time>
      </trkpt>
      <trkpt lat="41.273326" lon="0.731044">
        <ele>445.18</ele>
        <time>2011-07-27T09:00:43.61Z</time>
      </trkpt>
      <trkpt lat="41.273311" lon="0.731489">
        <ele>449.66</ele>
        <time>2011-07-27T09:00:45.84Z</time>
      </trkpt>
      <trkpt lat="41.273210" lon="0.731683">
        <ele>450.32</ele>
        <time>2011-07-27T09:00:47.03Z</time>
      </trkpt>
      <trkpt lat="41.273101" lon="0.731776">
        <ele>450.11</ele>
        <time>2011-07-27T09:00:47.89Z</time>
      </trkpt>
      <trkpt lat="41.273014" lon="0.732002">
        <ele>452.73</ele>
        <time>2011-07-27T09:00:49.16Z</time>
      </trkpt>
      <trkpt lat="41.272865" lon="0.732426">
        <ele>459.24</ele>
        <time>2011-07-27T09:00:51.51Z</time>
      </trkpt>
      <trkpt lat="41.272766" lon="0.732767">
        <ele>464.24</ele>
        <time>2011-07-27T09:00:53.34Z</time>
      </trkpt>
      <trkpt lat="41.272694" lon="0.733023">
        <ele>468.04</ele>
        <time>2011-07-27T09:00:54.71Z</time>
      </trkpt>
      <trkpt lat="41.272570" lon="0.733103">
        <ele>469.13</ele>
        <time>2011-07-27T09:00:55.63Z</time>
      </trkpt>
      <trkpt lat="41.272402" lon="0.733062">
        <ele>464.96</ele>
        <time>2011-07-27T09:00:56.76Z</time>
      </trkpt>
      <trkpt lat="41.272126" lon="0.733047">
        <ele>454.73</ele>
        <time>2011-07-27T09:00:58.61Z</time>
      </trkpt>
      <trkpt lat="41.271796" lon="0.733273">
        <ele>447.95</ele>
        <time>2011-07-27T09:01:01.08Z</time>
      </trkpt>
      <trkpt lat="41.271401" lon="0.733866">
        <ele>460.54</ele>
        <time>2011-07-27T09:01:05.05Z</time>
      </trkpt>
      <trkpt lat="41.271045" lon="0.734338">
        <ele>469.30</ele>
        <time>2011-07-27T09:01:08.40Z</time>
      </trkpt>
      <trkpt lat="41.270965" lon="0.734833">
        <ele>478.82</ele>
        <time>2011-07-27T09:01:10.94Z</time>
      </trkpt>
      <trkpt lat="41.270974" lon="0.735594">
        <ele>484.71</ele>
        <time>2011-07-27T09:01:14.75Z</time>
      </trkpt>
      <trkpt lat="41.270664" lon="0.736263">
        <ele>489.93</ele>
        <time>2011-07-27T09:01:18.69Z</time>
      </trkpt>
      <trkpt lat="41.270517" lon="0.736704">
        <ele>492.92</ele>
        <time>2011-07-27T09:01:21.11Z</time>
      </trkpt>
      <trkpt lat="41.270403" lon="0.736978">
        <ele>495.24</ele>
        <time>2011-07-27T09:01:22.68Z</time>
      </trkpt>
      <trkpt lat="41.270270" lon="0.737220">
        <ele>498.43</ele>
        <time>2011-07-27T09:01:24.18Z</time>
      </trkpt>
      <trkpt lat="41.270260" lon="0.737665">
        <ele>503.64</ele>
        <time>2011-07-27T09:01:26.41Z</time>
      </trkpt>
      <trkpt lat="41.270126" lon="0.738106">
        <ele>507.13</ele>
        <time>2011-07-27T09:01:28.79Z</time>
      </trkpt>
      <trkpt lat="41.270029" lon="0.738347">
        <ele>511.03</ele>
        <time>2011-07-27T09:01:30.16Z</time>
      </trkpt>
      <trkpt lat="41.269759" lon="0.738634">
        <ele>508.37</ele>
        <time>2011-07-27T09:01:32.47Z</time>
      </trkpt>
      <trkpt lat="41.269789" lon="0.738950">
        <ele>507.89</ele>
        <time>2011-07-27T09:01:34.06Z</time>
      </trkpt>
      <trkpt lat="41.269604" lon="0.738964">
        <ele>509.96</ele>
        <time>2011-07-27T09:01:35.30Z</time>
      </trkpt>
      <trkpt lat="41.269387" lon="0.739202">
        <ele>515.62</ele>
        <time>2011-07-27T09:01:37.17Z</time>
      </trkpt>
      <trkpt lat="41.269265" lon="0.739357">
        <ele>519.41</ele>
        <time>2011-07-27T09:01:38.30Z</time>
      </trkpt>
      <trkpt lat="41.269184" lon="0.739542">
        <ele>523.35</ele>
        <time>2011-07-27T09:01:39.37Z</time>
      </trkpt>
      <trkpt lat="41.269157" lon="0.739979">
        <ele>528.87</ele>
        <time>2011-07-27T09:01:41.57Z</time>
      </trkpt>
      <trkpt lat="41.268916" lon="0.740217">
        <ele>530.95</ele>
        <time>2011-07-27T09:01:43.57Z</time>
      </trkpt>
      <trkpt lat="41.268663" lon="0.740409">
        <ele>533.76</ele>
        <time>2011-07-27T09:01:45.51Z</time>
      </trkpt>
      <trkpt lat="41.268490" lon="0.740771">
        <ele>536.23</ele>
        <time>2011-07-27T09:01:47.66Z</time>
      </trkpt>
      <trkpt lat="41.268232" lon="0.740994">
        <ele>535.36</ele>
        <time>2011-07-27T09:01:49.71Z</time>
      </trkpt>
      <trkpt lat="41.268067" lon="0.741460">
        <ele>524.60</ele>
        <time>2011-07-27T09:01:52.29Z</time>
      </trkpt>
      <trkpt lat="41.267902" lon="0.741870">
        <ele>519.46</ele>
        <time>2011-07-27T09:01:54.62Z</time>
      </trkpt>
      <trkpt lat="41.267857" lon="0.742332">
        <ele>514.05</ele>
        <time>2011-07-27T09:01:56.96Z</time>
      </trkpt>
      <trkpt lat="41.267819" lon="0.742563">
        <ele>513.85</ele>
        <time>2011-07-27T09:01:58.14Z</time>
      </trkpt>
      <trkpt lat="41.267776" lon="0.742803">
        <ele>517.61</ele>
        <time>2011-07-27T09:01:59.38Z</time>
      </trkpt>
      <trkpt lat="41.267848" lon="0.743086">
        <ele>517.81</ele>
        <time>2011-07-27T09:02:00.88Z</time>
      </trkpt>
      <trkpt lat="41.268047" lon="0.743507">
        <ele>512.48</ele>
        <time>2011-07-27T09:02:03.37Z</time>
      </trkpt>
      <trkpt lat="41.268194" lon="0.743978">
        <ele>504.43</ele>
        <time>2011-07-27T09:02:05.92Z</time>
      </trkpt>
      <trkpt lat="41.268149" lon="0.744440">
        <ele>502.49</ele>
        <time>2011-07-27T09:02:08.26Z</time>
      </trkpt>
      <trkpt lat="41.268023" lon="0.744690">
        <ele>505.15</ele>
        <time>2011-07-27T09:02:09.77Z</time>
      </trkpt>
      <trkpt lat="41.267997" lon="0.744921">
        <ele>504.75</ele>
        <time>2011-07-27T09:02:10.94Z</time>
      </trkpt>
      <trkpt lat="41.267876" lon="0.745164">
        <ele>510.13</ele>
        <time>2011-07-27T09:02:12.40Z</time>
      </trkpt>
      <trkpt lat="41.267682" lon="0.745527">
        <ele>520.02</ele>
        <time>2011-07-27T09:02:14.63Z</time>
      </trkpt>
      <trkpt lat="41.267262" lon="0.745828">
        <ele>532.97</ele>
        <time>2011-07-27T09:02:17.81Z</time>
      </trkpt>
      <trkpt lat="41.267070" lon="0.745943">
        <ele>534.45</ele>
        <time>2011-07-27T09:02:19.21Z</time>
      </trkpt>
      <trkpt lat="41.266976" lon="0.746095">
        <ele>533.40</ele>
        <time>2011-07-27T09:02:20.20Z</time>
      </trkpt>
      <trkpt lat="41.266815" lon="0.746259">
        <ele>533.92</ele>
        <time>2011-07-27T09:02:21.55Z</time>
      </trkpt>
      <trkpt lat="41.266778" lon="0.746636">
        <ele>528.91</ele>
        <time>2011-07-27T09:02:23.46Z</time>
      </trkpt>
      <trkpt lat="41.266527" lon="0.746784">
        <ele>533.67</ele>
        <time>2011-07-27T09:02:25.29Z</time>
      </trkpt>
      <trkpt lat="41.266412" lon="0.747005">
        <ele>534.15</ele>
        <time>2011-07-27T09:02:26.63Z</time>
      </trkpt>
      <trkpt lat="41.266288" lon="0.747158">
        <ele>536.58</ele>
        <time>2011-07-27T09:02:27.76Z</time>
      </trkpt>
      <trkpt lat="41.266125" lon="0.747263">
        <ele>541.29</ele>
        <time>2011-07-27T09:02:28.97Z</time>
      </trkpt>
      <trkpt lat="41.266033" lon="0.747880">
        <ele>544.81</ele>
        <time>2011-07-27T09:02:32.12Z</time>
      </trkpt>
      <trkpt lat="41.266067" lon="0.748492">
        <ele>550.53</ele>
        <time>2011-07-27T09:02:35.19Z</time>
      </trkpt>
      <trkpt lat="41.266001" lon="0.748910">
        <ele>561.18</ele>
        <time>2011-07-27T09:02:37.34Z</time>
      </trkpt>
      <trkpt lat="41.266252" lon="0.749149">
        <ele>559.42</ele>
        <time>2011-07-27T09:02:39.39Z</time>
      </trkpt>
      <trkpt lat="41.266569" lon="0.749336">
        <ele>552.54</ele>
        <time>2011-07-27T09:02:41.70Z</time>
      </trkpt>
      <trkpt lat="41.266834" lon="0.749495">
        <ele>542.92</ele>
        <time>2011-07-27T09:02:43.64Z</time>
      </trkpt>
      <trkpt lat="41.266940" lon="0.749947">
        <ele>539.12</ele>
        <time>2011-07-27T09:02:46.02Z</time>
      </trkpt>
      <trkpt lat="41.266986" lon="0.750430">
        <ele>543.01</ele>
        <time>2011-07-27T09:02:48.46Z</time>
      </trkpt>
      <trkpt lat="41.267022" lon="0.751112">
        <ele>550.74</ele>
        <time>2011-07-27T09:02:51.88Z</time>
      </trkpt>
      <trkpt lat="41.267192" lon="0.751413">
        <ele>547.65</ele>
        <time>2011-07-27T09:02:53.77Z</time>
      </trkpt>
      <trkpt lat="41.267459" lon="0.751671">
        <ele>540.58</ele>
        <time>2011-07-27T09:02:55.97Z</time>
      </trkpt>
      <trkpt lat="41.267439" lon="0.752206">
        <ele>549.45</ele>
        <time>2011-07-27T09:02:58.65Z</time>
      </trkpt>
      <trkpt lat="41.267540" lon="0.752757">
        <ele>555.94</ele>
        <time>2011-07-27T09:03:01.49Z</time>
      </trkpt>
      <trkpt lat="41.267622" lon="0.753160">
        <ele>562.32</ele>
        <time>2011-07-27T09:03:03.59Z</time>
      </trkpt>
      <trkpt lat="41.267740" lon="0.753463">
        <ele>568.48</ele>
        <time>2011-07-27T09:03:05.30Z</time>
      </trkpt>
      <trkpt lat="41.267705" lon="0.753615">
        <ele>570.66</ele>
        <time>2011-07-27T09:03:06.09Z</time>
      </trkpt>
      <trkpt lat="41.267743" lon="0.753695">
        <ele>572.33</ele>
        <time>2011-07-27T09:03:06.57Z</time>
      </trkpt>
      <trkpt lat="41.267683" lon="0.753767">
        <ele>573.49</ele>
        <time>2011-07-27T09:03:07.11Z</time>
      </trkpt>
      <trkpt lat="41.267700" lon="0.754017">
        <ele>578.02</ele>
        <time>2011-07-27T09:03:08.36Z</time>
      </trkpt>
      <trkpt lat="41.267767" lon="0.754250">
        <ele>582.01</ele>
        <time>2011-07-27T09:03:09.61Z</time>
      </trkpt>
      <trkpt lat="41.267867" lon="0.754667">
        <ele>589.39</ele>
        <time>2011-07-27T09:03:11.81Z</time>
      </trkpt>
      <trkpt lat="41.267950" lon="0.755083">
        <ele>596.38</ele>
        <time>2011-07-27T09:03:13.96Z</time>
      </trkpt>
      <trkpt lat="41.268050" lon="0.755433">
        <ele>603.92</ele>
        <time>2011-07-27T09:03:15.84Z</time>
      </trkpt>
      <trkpt lat="41.268167" lon="0.755683">
        <ele>609.55</ele>
        <time>2011-07-27T09:03:17.32Z</time>
      </trkpt>
      <trkpt lat="41.268200" lon="0.755900">
        <ele>614.94</ele>
        <time>2011-07-27T09:03:18.42Z</time>
      </trkpt>
      <trkpt lat="41.268283" lon="0.756033">
        <ele>617.41</ele>
        <time>2011-07-27T09:03:19.29Z</time>
      </trkpt>
      <trkpt lat="41.268300" lon="0.756267">
        <ele>622.68</ele>
        <time>2011-07-27T09:03:20.47Z</time>
      </trkpt>
      <trkpt lat="41.268394" lon="0.756539">
        <ele>628.24</ele>
        <time>2011-07-27T09:03:21.97Z</time>
      </trkpt>
      <trkpt lat="41.268544" lon="0.756733">
        <ele>629.84</ele>
        <time>2011-07-27T09:03:23.36Z</time>
      </trkpt>
      <trkpt lat="41.268723" lon="0.756899">
        <ele>629.87</ele>
        <time>2011-07-27T09:03:24.82Z</time>
      </trkpt>
      <trkpt lat="41.268894" lon="0.757045">
        <ele>630.72</ele>
        <time>2011-07-27T09:03:26.17Z</time>
      </trkpt>
      <trkpt lat="41.268989" lon="0.757279">
        <ele>634.41</ele>
        <time>2011-07-27T09:03:27.51Z</time>
      </trkpt>
      <trkpt lat="41.269045" lon="0.757538">
        <ele>638.68</ele>
        <time>2011-07-27T09:03:28.86Z</time>
      </trkpt>
      <trkpt lat="41.269059" lon="0.757783">
        <ele>639.05</ele>
        <time>2011-07-27T09:03:30.09Z</time>
      </trkpt>
      <trkpt lat="41.269215" lon="0.757878">
        <ele>639.78</ele>
        <time>2011-07-27T09:03:31.23Z</time>
      </trkpt>
      <trkpt lat="41.269379" lon="0.757967">
        <ele>637.48</ele>
        <time>2011-07-27T09:03:32.41Z</time>
      </trkpt>
      <trkpt lat="41.269496" lon="0.758065">
        <ele>635.24</ele>
        <time>2011-07-27T09:03:33.33Z</time>
      </trkpt>
      <trkpt lat="41.269571" lon="0.758143">
        <ele>633.49</ele>
        <time>2011-07-27T09:03:33.97Z</time>
      </trkpt>
      <trkpt lat="41.269650" lon="0.758217">
        <ele>631.24</ele>
        <time>2011-07-27T09:03:34.61Z</time>
      </trkpt>
      <trkpt lat="41.269733" lon="0.758417">
        <ele>628.28</ele>
        <time>2011-07-27T09:03:35.76Z</time>
      </trkpt>
      <trkpt lat="41.269767" lon="0.758600">
        <ele>626.96</ele>
        <time>2011-07-27T09:03:36.70Z</time>
      </trkpt>
      <trkpt lat="41.269850" lon="0.758850">
        <ele>625.08</ele>
        <time>2011-07-27T09:03:38.07Z</time>
      </trkpt>
      <trkpt lat="41.270017" lon="0.758983">
        <ele>622.11</ele>
        <time>2011-07-27T09:03:39.37Z</time>
      </trkpt>
      <trkpt lat="41.270100" lon="0.759217">
        <ele>619.41</ele>
        <time>2011-07-27T09:03:40.66Z</time>
      </trkpt>
      <trkpt lat="41.270117" lon="0.759417">
        <ele>622.09</ele>
        <time>2011-07-27T09:03:41.67Z</time>
      </trkpt>
      <trkpt lat="41.270117" lon="0.759567">
        <ele>624.42</ele>
        <time>2011-07-27T09:03:42.42Z</time>
      </trkpt>
      <trkpt lat="41.270183" lon="0.759750">
        <ele>624.56</ele>
        <time>2011-07-27T09:03:43.44Z</time>
      </trkpt>
      <trkpt lat="41.270283" lon="0.759900">
        <ele>622.72</ele>
        <time>2011-07-27T09:03:44.45Z</time>
      </trkpt>
      <trkpt lat="41.270367" lon="0.760033">
        <ele>621.13</ele>
        <time>2011-07-27T09:03:45.32Z</time>
      </trkpt>
      <trkpt lat="41.270500" lon="0.760300">
        <ele>620.76</ele>
        <time>2011-07-27T09:03:46.92Z</time>
      </trkpt>
      <trkpt lat="41.270567" lon="0.760450">
        <ele>621.34</ele>
        <time>2011-07-27T09:03:47.80Z</time>
      </trkpt>
      <trkpt lat="41.270633" lon="0.760550">
        <ele>621.44</ele>
        <time>2011-07-27T09:03:48.46Z</time>
      </trkpt>
      <trkpt lat="41.270667" lon="0.760717">
        <ele>624.48</ele>
        <time>2011-07-27T09:03:49.33Z</time>
      </trkpt>
      <trkpt lat="41.270667" lon="0.761033">
        <ele>631.94</ele>
        <time>2011-07-27T09:03:50.91Z</time>
      </trkpt>
      <trkpt lat="41.270717" lon="0.761167">
        <ele>634.22</ele>
        <time>2011-07-27T09:03:51.66Z</time>
      </trkpt>
      <trkpt lat="41.270883" lon="0.761517">
        <ele>640.61</ele>
        <time>2011-07-27T09:03:53.74Z</time>
      </trkpt>
      <trkpt lat="41.270967" lon="0.761650">
        <ele>641.39</ele>
        <time>2011-07-27T09:03:54.61Z</time>
      </trkpt>
      <trkpt lat="41.271150" lon="0.761733">
        <ele>636.64</ele>
        <time>2011-07-27T09:03:55.90Z</time>
      </trkpt>
      <trkpt lat="41.271317" lon="0.761833">
        <ele>632.74</ele>
        <time>2011-07-27T09:03:57.12Z</time>
      </trkpt>
      <trkpt lat="41.271383" lon="0.761867">
        <ele>631.46</ele>
        <time>2011-07-27T09:03:57.59Z</time>
      </trkpt>
      <trkpt lat="41.271483" lon="0.761883">
        <ele>628.16</ele>
        <time>2011-07-27T09:03:58.26Z</time>
      </trkpt>
      <trkpt lat="41.271567" lon="0.761883">
        <ele>625.30</ele>
        <time>2011-07-27T09:03:58.82Z</time>
      </trkpt>
      <trkpt lat="41.271633" lon="0.761900">
        <ele>623.67</ele>
        <time>2011-07-27T09:03:59.27Z</time>
      </trkpt>
      <trkpt lat="41.271700" lon="0.761950">
        <ele>623.87</ele>
        <time>2011-07-27T09:03:59.78Z</time>
      </trkpt>
      <trkpt lat="41.271717" lon="0.762100">
        <ele>628.04</ele>
        <time>2011-07-27T09:04:00.54Z</time>
      </trkpt>
      <trkpt lat="41.271800" lon="0.762200">
        <ele>630.90</ele>
        <time>2011-07-27T09:04:01.29Z</time>
      </trkpt>
      <trkpt lat="41.271867" lon="0.762383">
        <ele>635.42</ele>
        <time>2011-07-27T09:04:02.31Z</time>
      </trkpt>
      <trkpt lat="41.271900" lon="0.762500">
        <ele>638.21</ele>
        <time>2011-07-27T09:04:02.93Z</time>
      </trkpt>
      <trkpt lat="41.271983" lon="0.762533">
        <ele>638.29</ele>
        <time>2011-07-27T09:04:03.51Z</time>
      </trkpt>
      <trkpt lat="41.272017" lon="0.762717">
        <ele>640.19</ele>
        <time>2011-07-27T09:04:04.46Z</time>
      </trkpt>
      <trkpt lat="41.272100" lon="0.762900">
        <ele>641.35</ele>
        <time>2011-07-27T09:04:05.53Z</time>
      </trkpt>
      <trkpt lat="41.272267" lon="0.762967">
        <ele>640.04</ele>
        <time>2011-07-27T09:04:06.69Z</time>
      </trkpt>
      <trkpt lat="41.272333" lon="0.763083">
        <ele>639.89</ele>
        <time>2011-07-27T09:04:07.42Z</time>
      </trkpt>
      <trkpt lat="41.272367" lon="0.763200">
        <ele>639.96</ele>
        <time>2011-07-27T09:04:08.05Z</time>
      </trkpt>
      <trkpt lat="41.272533" lon="0.763300">
        <ele>636.88</ele>
        <time>2011-07-27T09:04:09.27Z</time>
      </trkpt>
      <trkpt lat="41.272600" lon="0.763367">
        <ele>633.88</ele>
        <time>2011-07-27T09:04:09.83Z</time>
      </trkpt>
      <trkpt lat="41.272600" lon="0.763517">
        <ele>630.53</ele>
        <time>2011-07-27T09:04:10.58Z</time>
      </trkpt>
      <trkpt lat="41.272533" lon="0.763617">
        <ele>630.59</ele>
        <time>2011-07-27T09:04:11.25Z</time>
      </trkpt>
      <trkpt lat="41.272417" lon="0.763700">
        <ele>631.12</ele>
        <time>2011-07-27T09:04:12.13Z</time>
      </trkpt>
      <trkpt lat="41.272282" lon="0.763722">
        <ele>633.71</ele>
        <time>2011-07-27T09:04:13.03Z</time>
      </trkpt>
      <trkpt lat="41.272058" lon="0.763749">
        <ele>638.45</ele>
        <time>2011-07-27T09:04:14.53Z</time>
      </trkpt>
      <trkpt lat="41.271873" lon="0.763762">
        <ele>642.41</ele>
        <time>2011-07-27T09:04:15.77Z</time>
      </trkpt>
      <trkpt lat="41.271790" lon="0.763802">
        <ele>643.72</ele>
        <time>2011-07-27T09:04:16.36Z</time>
      </trkpt>
      <trkpt lat="41.271788" lon="0.763996">
        <ele>640.50</ele>
        <time>2011-07-27T09:04:17.33Z</time>
      </trkpt>
      <trkpt lat="41.271697" lon="0.764150">
        <ele>640.54</ele>
        <time>2011-07-27T09:04:18.31Z</time>
      </trkpt>
      <trkpt lat="41.271623" lon="0.764328">
        <ele>641.67</ele>
        <time>2011-07-27T09:04:19.33Z</time>
      </trkpt>
      <trkpt lat="41.271616" lon="0.764526">
        <ele>640.36</ele>
        <time>2011-07-27T09:04:20.32Z</time>
      </trkpt>
      <trkpt lat="41.271620" lon="0.764811">
        <ele>637.96</ele>
        <time>2011-07-27T09:04:21.75Z</time>
      </trkpt>
      <trkpt lat="41.271640" lon="0.765097">
        <ele>637.93</ele>
        <time>2011-07-27T09:04:23.19Z</time>
      </trkpt>
      <trkpt lat="41.271647" lon="0.765302">
        <ele>643.65</ele>
        <time>2011-07-27T09:04:24.22Z</time>
      </trkpt>
      <trkpt lat="41.271671" lon="0.765594">
        <ele>650.51</ele>
        <time>2011-07-27T09:04:25.69Z</time>
      </trkpt>
      <trkpt lat="41.271685" lon="0.765720">
        <ele>653.41</ele>
        <time>2011-07-27T09:04:26.33Z</time>
      </trkpt>
      <trkpt lat="41.271697" lon="0.765857">
        <ele>656.29</ele>
        <time>2011-07-27T09:04:27.02Z</time>
      </trkpt>
      <trkpt lat="41.271759" lon="0.766071">
        <ele>656.65</ele>
        <time>2011-07-27T09:04:28.17Z</time>
      </trkpt>
      <trkpt lat="41.271787" lon="0.766244">
        <ele>658.26</ele>
        <time>2011-07-27T09:04:29.05Z</time>
      </trkpt>
      <trkpt lat="41.271900" lon="0.766517">
        <ele>656.66</ele>
        <time>2011-07-27T09:04:30.62Z</time>
      </trkpt>
      <trkpt lat="41.271900" lon="0.766757">
        <ele>659.91</ele>
        <time>2011-07-27T09:04:31.82Z</time>
      </trkpt>
      <trkpt lat="41.271847" lon="0.767033">
        <ele>664.09</ele>
        <time>2011-07-27T09:04:33.25Z</time>
      </trkpt>
      <trkpt lat="41.271724" lon="0.767253">
        <ele>672.43</ele>
        <time>2011-07-27T09:04:34.62Z</time>
      </trkpt>
      <trkpt lat="41.271641" lon="0.767430">
        <ele>677.70</ele>
        <time>2011-07-27T09:04:35.67Z</time>
      </trkpt>
      <trkpt lat="41.271582" lon="0.767547">
        <ele>679.70</ele>
        <time>2011-07-27T09:04:36.37Z</time>
      </trkpt>
      <trkpt lat="41.271506" lon="0.767645">
        <ele>681.63</ele>
        <time>2011-07-27T09:04:37.08Z</time>
      </trkpt>
      <trkpt lat="41.271442" lon="0.767749">
        <ele>683.42</ele>
        <time>2011-07-27T09:04:37.75Z</time>
      </trkpt>
      <trkpt lat="41.271374" lon="0.767853">
        <ele>685.31</ele>
        <time>2011-07-27T09:04:38.44Z</time>
      </trkpt>
      <trkpt lat="41.271314" lon="0.767992">
        <ele>686.95</ele>
        <time>2011-07-27T09:04:39.24Z</time>
      </trkpt>
      <trkpt lat="41.271196" lon="0.768179">
        <ele>690.55</ele>
        <time>2011-07-27T09:04:40.47Z</time>
      </trkpt>
      <trkpt lat="41.271161" lon="0.768336">
        <ele>691.43</ele>
        <time>2011-07-27T09:04:41.29Z</time>
      </trkpt>
      <trkpt lat="41.271194" lon="0.768503">
        <ele>688.08</ele>
        <time>2011-07-27T09:04:42.15Z</time>
      </trkpt>
      <trkpt lat="41.271185" lon="0.768634">
        <ele>686.85</ele>
        <time>2011-07-27T09:04:42.81Z</time>
      </trkpt>
      <trkpt lat="41.271150" lon="0.768817">
        <ele>685.98</ele>
        <time>2011-07-27T09:04:43.76Z</time>
      </trkpt>
      <trkpt lat="41.271100" lon="0.768817">
        <ele>688.06</ele>
        <time>2011-07-27T09:04:44.09Z</time>
      </trkpt>
      <trkpt lat="41.270983" lon="0.768917">
        <ele>691.76</ele>
        <time>2011-07-27T09:04:45.02Z</time>
      </trkpt>
      <trkpt lat="41.270850" lon="0.769067">
        <ele>695.46</ele>
        <time>2011-07-27T09:04:46.18Z</time>
      </trkpt>
      <trkpt lat="41.270750" lon="0.769100">
        <ele>698.61</ele>
        <time>2011-07-27T09:04:46.87Z</time>
      </trkpt>
      <trkpt lat="41.270700" lon="0.768967">
        <ele>702.12</ele>
        <time>2011-07-27T09:04:47.61Z</time>
      </trkpt>
      <trkpt lat="41.270600" lon="0.768867">
        <ele>706.81</ele>
        <time>2011-07-27T09:04:48.45Z</time>
      </trkpt>
      <trkpt lat="41.270483" lon="0.768867">
        <ele>711.15</ele>
        <time>2011-07-27T09:04:49.23Z</time>
      </trkpt>
      <trkpt lat="41.270383" lon="0.768983">
        <ele>713.42</ele>
        <time>2011-07-27T09:04:50.11Z</time>
      </trkpt>
      <trkpt lat="41.270267" lon="0.769000">
        <ele>717.54</ele>
        <time>2011-07-27T09:04:50.89Z</time>
      </trkpt>
      <trkpt lat="41.270183" lon="0.769000">
        <ele>720.64</ele>
        <time>2011-07-27T09:04:51.45Z</time>
      </trkpt>
      <trkpt lat="41.270172" lon="0.769093">
        <ele>719.84</ele>
        <time>2011-07-27T09:04:51.92Z</time>
      </trkpt>
      <trkpt lat="41.270163" lon="0.769255">
        <ele>717.87</ele>
        <time>2011-07-27T09:04:52.74Z</time>
      </trkpt>
      <trkpt lat="41.270108" lon="0.769345">
        <ele>718.22</ele>
        <time>2011-07-27T09:04:53.32Z</time>
      </trkpt>
      <trkpt lat="41.270080" lon="0.769520">
        <ele>715.94</ele>
        <time>2011-07-27T09:04:54.21Z</time>
      </trkpt>
      <trkpt lat="41.270080" lon="0.769652">
        <ele>713.67</ele>
        <time>2011-07-27T09:04:54.87Z</time>
      </trkpt>
      <trkpt lat="41.270087" lon="0.769883">
        <ele>709.33</ele>
        <time>2011-07-27T09:04:56.03Z</time>
      </trkpt>
      <trkpt lat="41.270120" lon="0.769998">
        <ele>706.22</ele>
        <time>2011-07-27T09:04:56.65Z</time>
      </trkpt>
      <trkpt lat="41.270056" lon="0.770141">
        <ele>710.11</ele>
        <time>2011-07-27T09:04:57.48Z</time>
      </trkpt>
      <trkpt lat="41.270012" lon="0.770261">
        <ele>712.90</ele>
        <time>2011-07-27T09:04:58.15Z</time>
      </trkpt>
      <trkpt lat="41.269994" lon="0.770353">
        <ele>714.68</ele>
        <time>2011-07-27T09:04:58.63Z</time>
      </trkpt>
      <trkpt lat="41.270074" lon="0.770402">
        <ele>713.05</ele>
        <time>2011-07-27T09:04:59.22Z</time>
      </trkpt>
      <trkpt lat="41.270188" lon="0.770409">
        <ele>710.31</ele>
        <time>2011-07-27T09:04:59.98Z</time>
      </trkpt>
      <trkpt lat="41.270177" lon="0.770531">
        <ele>712.35</ele>
        <time>2011-07-27T09:05:00.59Z</time>
      </trkpt>
      <trkpt lat="41.270188" lon="0.770649">
        <ele>714.10</ele>
        <time>2011-07-27T09:05:01.19Z</time>
      </trkpt>
      <trkpt lat="41.270274" lon="0.770723">
        <ele>713.41</ele>
        <time>2011-07-27T09:05:01.87Z</time>
      </trkpt>
      <trkpt lat="41.270331" lon="0.770795">
        <ele>713.75</ele>
        <time>2011-07-27T09:05:02.40Z</time>
      </trkpt>
      <trkpt lat="41.270361" lon="0.770890">
        <ele>715.99</ele>
        <time>2011-07-27T09:05:02.91Z</time>
      </trkpt>
      <trkpt lat="41.270370" lon="0.771072">
        <ele>722.51</ele>
        <time>2011-07-27T09:05:03.83Z</time>
      </trkpt>
      <trkpt lat="41.270433" lon="0.771178">
        <ele>725.03</ele>
        <time>2011-07-27T09:05:04.50Z</time>
      </trkpt>
      <trkpt lat="41.270517" lon="0.771311">
        <ele>727.81</ele>
        <time>2011-07-27T09:05:05.37Z</time>
      </trkpt>
      <trkpt lat="41.270594" lon="0.771359">
        <ele>727.85</ele>
        <time>2011-07-27T09:05:05.94Z</time>
      </trkpt>
      <trkpt lat="41.270697" lon="0.771350">
        <ele>725.07</ele>
        <time>2011-07-27T09:05:06.63Z</time>
      </trkpt>
      <trkpt lat="41.270839" lon="0.771310">
        <ele>720.37</ele>
        <time>2011-07-27T09:05:07.60Z</time>
      </trkpt>
      <trkpt lat="41.270984" lon="0.771293">
        <ele>713.68</ele>
        <time>2011-07-27T09:05:08.57Z</time>
      </trkpt>
      <trkpt lat="41.271097" lon="0.771236">
        <ele>707.62</ele>
        <time>2011-07-27T09:05:09.37Z</time>
      </trkpt>
      <trkpt lat="41.271260" lon="0.771226">
        <ele>700.62</ele>
        <time>2011-07-27T09:05:10.46Z</time>
      </trkpt>
      <trkpt lat="41.271368" lon="0.771208">
        <ele>695.59</ele>
        <time>2011-07-27T09:05:11.19Z</time>
      </trkpt>
      <trkpt lat="41.271462" lon="0.771174">
        <ele>691.48</ele>
        <time>2011-07-27T09:05:11.84Z</time>
      </trkpt>
      <trkpt lat="41.271536" lon="0.771060">
        <ele>686.93</ele>
        <time>2011-07-27T09:05:12.59Z</time>
      </trkpt>
      <trkpt lat="41.271599" lon="0.771039">
        <ele>684.42</ele>
        <time>2011-07-27T09:05:13.02Z</time>
      </trkpt>
      <trkpt lat="41.271686" lon="0.771000">
        <ele>680.62</ele>
        <time>2011-07-27T09:05:13.63Z</time>
      </trkpt>
      <trkpt lat="41.271813" lon="0.771061">
        <ele>675.11</ele>
        <time>2011-07-27T09:05:14.54Z</time>
      </trkpt>
      <trkpt lat="41.271894" lon="0.771184">
        <ele>672.55</ele>
        <time>2011-07-27T09:05:15.35Z</time>
      </trkpt>
      <trkpt lat="41.271943" lon="0.771412">
        <ele>672.63</ele>
        <time>2011-07-27T09:05:16.54Z</time>
      </trkpt>
      <trkpt lat="41.271977" lon="0.771718">
        <ele>673.32</ele>
        <time>2011-07-27T09:05:18.09Z</time>
      </trkpt>
      <trkpt lat="41.271992" lon="0.771935">
        <ele>671.04</ele>
        <time>2011-07-27T09:05:19.18Z</time>
      </trkpt>
      <trkpt lat="41.272009" lon="0.772191">
        <ele>668.24</ele>
        <time>2011-07-27T09:05:20.47Z</time>
      </trkpt>
      <trkpt lat="41.272040" lon="0.772276">
        <ele>666.01</ele>
        <time>2011-07-27T09:05:20.95Z</time>
      </trkpt>
      <trkpt lat="41.271987" lon="0.772430">
        <ele>667.28</ele>
        <time>2011-07-27T09:05:21.79Z</time>
      </trkpt>
      <trkpt lat="41.271900" lon="0.772602">
        <ele>668.39</ele>
        <time>2011-07-27T09:05:22.83Z</time>
      </trkpt>
      <trkpt lat="41.271900" lon="0.772818">
        <ele>663.45</ele>
        <time>2011-07-27T09:05:23.92Z</time>
      </trkpt>
      <trkpt lat="41.271907" lon="0.772950">
        <ele>660.09</ele>
        <time>2011-07-27T09:05:24.58Z</time>
      </trkpt>
      <trkpt lat="41.271795" lon="0.773096">
        <ele>663.42</ele>
        <time>2011-07-27T09:05:25.62Z</time>
      </trkpt>
      <trkpt lat="41.271692" lon="0.773282">
        <ele>666.21</ele>
        <time>2011-07-27T09:05:26.78Z</time>
      </trkpt>
      <trkpt lat="41.271607" lon="0.773389">
        <ele>670.15</ele>
        <time>2011-07-27T09:05:27.56Z</time>
      </trkpt>
      <trkpt lat="41.271546" lon="0.773558">
        <ele>671.09</ele>
        <time>2011-07-27T09:05:28.50Z</time>
      </trkpt>
      <trkpt lat="41.271494" lon="0.773687">
        <ele>672.03</ele>
        <time>2011-07-27T09:05:29.23Z</time>
      </trkpt>
      <trkpt lat="41.271422" lon="0.773751">
        <ele>675.66</ele>
        <time>2011-07-27T09:05:29.81Z</time>
      </trkpt>
      <trkpt lat="41.271411" lon="0.773967">
        <ele>672.09</ele>
        <time>2011-07-27T09:05:30.90Z</time>
      </trkpt>
      <trkpt lat="41.271362" lon="0.774096">
        <ele>672.76</ele>
        <time>2011-07-27T09:05:31.62Z</time>
      </trkpt>
      <trkpt lat="41.271342" lon="0.774267">
        <ele>670.57</ele>
        <time>2011-07-27T09:05:32.49Z</time>
      </trkpt>
      <trkpt lat="41.271330" lon="0.774408">
        <ele>668.35</ele>
        <time>2011-07-27T09:05:33.20Z</time>
      </trkpt>
      <trkpt lat="41.271273" lon="0.774543">
        <ele>669.33</ele>
        <time>2011-07-27T09:05:33.97Z</time>
      </trkpt>
      <trkpt lat="41.271212" lon="0.774622">
        <ele>671.66</ele>
        <time>2011-07-27T09:05:34.54Z</time>
      </trkpt>
      <trkpt lat="41.271168" lon="0.774728">
        <ele>672.41</ele>
        <time>2011-07-27T09:05:35.15Z</time>
      </trkpt>
      <trkpt lat="41.271152" lon="0.774864">
        <ele>670.71</ele>
        <time>2011-07-27T09:05:35.84Z</time>
      </trkpt>
      <trkpt lat="41.271111" lon="0.774984">
        <ele>670.85</ele>
        <time>2011-07-27T09:05:36.50Z</time>
      </trkpt>
      <trkpt lat="41.271048" lon="0.775094">
        <ele>673.86</ele>
        <time>2011-07-27T09:05:37.19Z</time>
      </trkpt>
      <trkpt lat="41.270961" lon="0.775147">
        <ele>678.85</ele>
        <time>2011-07-27T09:05:37.83Z</time>
      </trkpt>
      <trkpt lat="41.270965" lon="0.775383">
        <ele>675.74</ele>
        <time>2011-07-27T09:05:39.01Z</time>
      </trkpt>
      <trkpt lat="41.270980" lon="0.775600">
        <ele>672.61</ele>
        <time>2011-07-27T09:05:40.10Z</time>
      </trkpt>
      <trkpt lat="41.271003" lon="0.775675">
        <ele>670.99</ele>
        <time>2011-07-27T09:05:40.51Z</time>
      </trkpt>
      <trkpt lat="41.271079" lon="0.775856">
        <ele>667.11</ele>
        <time>2011-07-27T09:05:41.55Z</time>
      </trkpt>
      <trkpt lat="41.271182" lon="0.775965">
        <ele>667.88</ele>
        <time>2011-07-27T09:05:42.43Z</time>
      </trkpt>
      <trkpt lat="41.271221" lon="0.776021">
        <ele>668.41</ele>
        <time>2011-07-27T09:05:42.81Z</time>
      </trkpt>
      <trkpt lat="41.271298" lon="0.776153">
        <ele>671.05</ele>
        <time>2011-07-27T09:05:43.65Z</time>
      </trkpt>
      <trkpt lat="41.271352" lon="0.776308">
        <ele>675.61</ele>
        <time>2011-07-27T09:05:44.50Z</time>
      </trkpt>
      <trkpt lat="41.271422" lon="0.776341">
        <ele>675.81</ele>
        <time>2011-07-27T09:05:45Z</time>
      </trkpt>
      <trkpt lat="41.271503" lon="0.776336">
        <ele>673.54</ele>
        <time>2011-07-27T09:05:45.54Z</time>
      </trkpt>
      <trkpt lat="41.271611" lon="0.776313">
        <ele>670.74</ele>
        <time>2011-07-27T09:05:46.27Z</time>
      </trkpt>
      <trkpt lat="41.271843" lon="0.776258">
        <ele>662.08</ele>
        <time>2011-07-27T09:05:47.84Z</time>
      </trkpt>
      <trkpt lat="41.271916" lon="0.776267">
        <ele>660.66</ele>
        <time>2011-07-27T09:05:48.33Z</time>
      </trkpt>
      <trkpt lat="41.272027" lon="0.776293">
        <ele>658.77</ele>
        <time>2011-07-27T09:05:49.08Z</time>
      </trkpt>
      <trkpt lat="41.272128" lon="0.776358">
        <ele>658.42</ele>
        <time>2011-07-27T09:05:49.83Z</time>
      </trkpt>
      <trkpt lat="41.272243" lon="0.776453">
        <ele>658.37</ele>
        <time>2011-07-27T09:05:50.73Z</time>
      </trkpt>
      <trkpt lat="41.272373" lon="0.776450">
        <ele>654.47</ele>
        <time>2011-07-27T09:05:51.60Z</time>
      </trkpt>
      <trkpt lat="41.272562" lon="0.776442">
        <ele>648.29</ele>
        <time>2011-07-27T09:05:52.86Z</time>
      </trkpt>
      <trkpt lat="41.272720" lon="0.776460">
        <ele>643.71</ele>
        <time>2011-07-27T09:05:53.91Z</time>
      </trkpt>
      <trkpt lat="41.272850" lon="0.776566">
        <ele>642.13</ele>
        <time>2011-07-27T09:05:54.93Z</time>
      </trkpt>
      <trkpt lat="41.272996" lon="0.776732">
        <ele>641.41</ele>
        <time>2011-07-27T09:05:56.21Z</time>
      </trkpt>
      <trkpt lat="41.273154" lon="0.776902">
        <ele>640.36</ele>
        <time>2011-07-27T09:05:57.56Z</time>
      </trkpt>
      <trkpt lat="41.273279" lon="0.777022">
        <ele>638.77</ele>
        <time>2011-07-27T09:05:58.59Z</time>
      </trkpt>
      <trkpt lat="41.273371" lon="0.777170">
        <ele>642.16</ele>
        <time>2011-07-27T09:05:59.55Z</time>
      </trkpt>
      <trkpt lat="41.273431" lon="0.777355">
        <ele>650.03</ele>
        <time>2011-07-27T09:06:00.56Z</time>
      </trkpt>
      <trkpt lat="41.273433" lon="0.777532">
        <ele>655.80</ele>
        <time>2011-07-27T09:06:01.45Z</time>
      </trkpt>
      <trkpt lat="41.273446" lon="0.777689">
        <ele>665.56</ele>
        <time>2011-07-27T09:06:02.24Z</time>
      </trkpt>
      <trkpt lat="41.273506" lon="0.777899">
        <ele>680.88</ele>
        <time>2011-07-27T09:06:03.37Z</time>
      </trkpt>
      <trkpt lat="41.273409" lon="0.777932">
        <ele>678.06</ele>
        <time>2011-07-27T09:06:04.04Z</time>
      </trkpt>
      <trkpt lat="41.273322" lon="0.777869">
        <ele>670.25</ele>
        <time>2011-07-27T09:06:04.70Z</time>
      </trkpt>
      <trkpt lat="41.273187" lon="0.777802">
        <ele>669.40</ele>
        <time>2011-07-27T09:06:05.66Z</time>
      </trkpt>
      <trkpt lat="41.273166" lon="0.777977">
        <ele>678.11</ele>
        <time>2011-07-27T09:06:06.54Z</time>
      </trkpt>
      <trkpt lat="41.273169" lon="0.778110">
        <ele>685.11</ele>
        <time>2011-07-27T09:06:07.21Z</time>
      </trkpt>
      <trkpt lat="41.273036" lon="0.778019">
        <ele>682.04</ele>
        <time>2011-07-27T09:06:08.21Z</time>
      </trkpt>
      <trkpt lat="41.272969" lon="0.778010">
        <ele>682.22</ele>
        <time>2011-07-27T09:06:08.66Z</time>
      </trkpt>
      <trkpt lat="41.272926" lon="0.778076">
        <ele>685.20</ele>
        <time>2011-07-27T09:06:09.10Z</time>
      </trkpt>
      <trkpt lat="41.272716" lon="0.777721">
        <ele>677.66</ele>
        <time>2011-07-27T09:06:11.36Z</time>
      </trkpt>
      <trkpt lat="41.272660" lon="0.777634">
        <ele>677.05</ele>
        <time>2011-07-27T09:06:11.93Z</time>
      </trkpt>
      <trkpt lat="41.272552" lon="0.777657">
        <ele>680.77</ele>
        <time>2011-07-27T09:06:12.66Z</time>
      </trkpt>
      <trkpt lat="41.272490" lon="0.777492">
        <ele>680.15</ele>
        <time>2011-07-27T09:06:13.59Z</time>
      </trkpt>
      <trkpt lat="41.272416" lon="0.777517">
        <ele>684.34</ele>
        <time>2011-07-27T09:06:14.10Z</time>
      </trkpt>
      <trkpt lat="41.272349" lon="0.777739">
        <ele>690.83</ele>
        <time>2011-07-27T09:06:15.29Z</time>
      </trkpt>
      <trkpt lat="41.272286" lon="0.778093">
        <ele>699.39</ele>
        <time>2011-07-27T09:06:17.12Z</time>
      </trkpt>
      <trkpt lat="41.272328" lon="0.778258">
        <ele>699.91</ele>
        <time>2011-07-27T09:06:17.99Z</time>
      </trkpt>
      <trkpt lat="41.272223" lon="0.778315">
        <ele>706.21</ele>
        <time>2011-07-27T09:06:18.75Z</time>
      </trkpt>
      <trkpt lat="41.272144" lon="0.778335">
        <ele>710.74</ele>
        <time>2011-07-27T09:06:19.28Z</time>
      </trkpt>
      <trkpt lat="41.272074" lon="0.778228">
        <ele>712.81</ele>
        <time>2011-07-27T09:06:19.99Z</time>
      </trkpt>
      <trkpt lat="41.271953" lon="0.778197">
        <ele>718.41</ele>
        <time>2011-07-27T09:06:20.81Z</time>
      </trkpt>
      <trkpt lat="41.271875" lon="0.778192">
        <ele>722.45</ele>
        <time>2011-07-27T09:06:21.33Z</time>
      </trkpt>
      <trkpt lat="41.271821" lon="0.778272">
        <ele>726.62</ele>
        <time>2011-07-27T09:06:21.87Z</time>
      </trkpt>
      <trkpt lat="41.271814" lon="0.778380">
        <ele>728.64</ele>
        <time>2011-07-27T09:06:22.42Z</time>
      </trkpt>
      <trkpt lat="41.271745" lon="0.778435">
        <ele>732.94</ele>
        <time>2011-07-27T09:06:22.95Z</time>
      </trkpt>
      <trkpt lat="41.271705" lon="0.778526">
        <ele>735.94</ele>
        <time>2011-07-27T09:06:23.48Z</time>
      </trkpt>
      <trkpt lat="41.271673" lon="0.778612">
        <ele>738.31</ele>
        <time>2011-07-27T09:06:23.96Z</time>
      </trkpt>
      <trkpt lat="41.271583" lon="0.778632">
        <ele>742.82</ele>
        <time>2011-07-27T09:06:24.57Z</time>
      </trkpt>
      <trkpt lat="41.271495" lon="0.778612">
        <ele>746.70</ele>
        <time>2011-07-27T09:06:25.17Z</time>
      </trkpt>
      <trkpt lat="41.271443" lon="0.778746">
        <ele>750.51</ele>
        <time>2011-07-27T09:06:25.92Z</time>
      </trkpt>
      <trkpt lat="41.271407" lon="0.778808">
        <ele>752.98</ele>
        <time>2011-07-27T09:06:26.31Z</time>
      </trkpt>
      <trkpt lat="41.271359" lon="0.778824">
        <ele>755.47</ele>
        <time>2011-07-27T09:06:26.64Z</time>
      </trkpt>
      <trkpt lat="41.271273" lon="0.778844">
        <ele>759.96</ele>
        <time>2011-07-27T09:06:27.23Z</time>
      </trkpt>
      <trkpt lat="41.271234" lon="0.779131">
        <ele>764.99</ele>
        <time>2011-07-27T09:06:28.69Z</time>
      </trkpt>
      <trkpt lat="41.271194" lon="0.779217">
        <ele>768.29</ele>
        <time>2011-07-27T09:06:29.19Z</time>
      </trkpt>
      <trkpt lat="41.271169" lon="0.779314">
        <ele>771.29</ele>
        <time>2011-07-27T09:06:29.71Z</time>
      </trkpt>
      <trkpt lat="41.271231" lon="0.779450">
        <ele>770.98</ele>
        <time>2011-07-27T09:06:30.50Z</time>
      </trkpt>
      <trkpt lat="41.271208" lon="0.779581">
        <ele>774.55</ele>
        <time>2011-07-27T09:06:31.18Z</time>
      </trkpt>
      <trkpt lat="41.271257" lon="0.779883">
        <ele>778.95</ele>
        <time>2011-07-27T09:06:32.73Z</time>
      </trkpt>
      <trkpt lat="41.271251" lon="0.780172">
        <ele>788.25</ele>
        <time>2011-07-27T09:06:34.17Z</time>
      </trkpt>
      <trkpt lat="41.271311" lon="0.780382">
        <ele>795.01</ele>
        <time>2011-07-27T09:06:35.30Z</time>
      </trkpt>
      <trkpt lat="41.271297" lon="0.780592">
        <ele>804.01</ele>
        <time>2011-07-27T09:06:36.36Z</time>
      </trkpt>
      <trkpt lat="41.271304" lon="0.780837">
        <ele>814.13</ele>
        <time>2011-07-27T09:06:37.59Z</time>
      </trkpt>
      <trkpt lat="41.271327" lon="0.781010">
        <ele>817.52</ele>
        <time>2011-07-27T09:06:38.47Z</time>
      </trkpt>
      <trkpt lat="41.271323" lon="0.781157">
        <ele>821.26</ele>
        <time>2011-07-27T09:06:39.20Z</time>
      </trkpt>
      <trkpt lat="41.271145" lon="0.781505">
        <ele>831.98</ele>
        <time>2011-07-27T09:06:41.31Z</time>
      </trkpt>
      <trkpt lat="41.271049" lon="0.781706">
        <ele>838.02</ele>
        <time>2011-07-27T09:06:42.51Z</time>
      </trkpt>
      <trkpt lat="41.271002" lon="0.781806">
        <ele>840.37</ele>
        <time>2011-07-27T09:06:43.10Z</time>
      </trkpt>
      <trkpt lat="41.270890" lon="0.781922">
        <ele>844.33</ele>
        <time>2011-07-27T09:06:44.04Z</time>
      </trkpt>
      <trkpt lat="41.270819" lon="0.782075">
        <ele>848.48</ele>
        <time>2011-07-27T09:06:44.94Z</time>
      </trkpt>
      <trkpt lat="41.270747" lon="0.782105">
        <ele>849.79</ele>
        <time>2011-07-27T09:06:45.45Z</time>
      </trkpt>
      <trkpt lat="41.270695" lon="0.782234">
        <ele>852.25</ele>
        <time>2011-07-27T09:06:46.18Z</time>
      </trkpt>
      <trkpt lat="41.270559" lon="0.782433">
        <ele>855.62</ele>
        <time>2011-07-27T09:06:47.53Z</time>
      </trkpt>
      <trkpt lat="41.270415" lon="0.782527">
        <ele>857.01</ele>
        <time>2011-07-27T09:06:48.60Z</time>
      </trkpt>
      <trkpt lat="41.270360" lon="0.782642">
        <ele>859.19</ele>
        <time>2011-07-27T09:06:49.28Z</time>
      </trkpt>
      <trkpt lat="41.270261" lon="0.782705">
        <ele>860.40</ele>
        <time>2011-07-27T09:06:50.01Z</time>
      </trkpt>
      <trkpt lat="41.270226" lon="0.782987">
        <ele>865.82</ele>
        <time>2011-07-27T09:06:51.44Z</time>
      </trkpt>
      <trkpt lat="41.270230" lon="0.783105">
        <ele>867.99</ele>
        <time>2011-07-27T09:06:52.04Z</time>
      </trkpt>
      <trkpt lat="41.270168" lon="0.783406">
        <ele>874.36</ele>
        <time>2011-07-27T09:06:53.60Z</time>
      </trkpt>
      <trkpt lat="41.270173" lon="0.783592">
        <ele>878.72</ele>
        <time>2011-07-27T09:06:54.53Z</time>
      </trkpt>
      <trkpt lat="41.270089" lon="0.783779">
        <ele>884.59</ele>
        <time>2011-07-27T09:06:55.62Z</time>
      </trkpt>
      <trkpt lat="41.269953" lon="0.783859">
        <ele>888.55</ele>
        <time>2011-07-27T09:06:56.61Z</time>
      </trkpt>
      <trkpt lat="41.269952" lon="0.784021">
        <ele>892.74</ele>
        <time>2011-07-27T09:06:57.43Z</time>
      </trkpt>
      <trkpt lat="41.270036" lon="0.784168">
        <ele>895.96</ele>
        <time>2011-07-27T09:06:58.35Z</time>
      </trkpt>
      <trkpt lat="41.269979" lon="0.784209">
        <ele>897.41</ele>
        <time>2011-07-27T09:06:58.78Z</time>
      </trkpt>
      <trkpt lat="41.270087" lon="0.784279">
        <ele>895.51</ele>
        <time>2011-07-27T09:06:59.58Z</time>
      </trkpt>
      <trkpt lat="41.270036" lon="0.784374">
        <ele>898.30</ele>
        <time>2011-07-27T09:07:00.17Z</time>
      </trkpt>
      <trkpt lat="41.270081" lon="0.784475">
        <ele>897.96</ele>
        <time>2011-07-27T09:07:00.76Z</time>
      </trkpt>
      <trkpt lat="41.270076" lon="0.784627">
        <ele>899.75</ele>
        <time>2011-07-27T09:07:01.52Z</time>
      </trkpt>
      <trkpt lat="41.270188" lon="0.784608">
        <ele>896.57</ele>
        <time>2011-07-27T09:07:02.27Z</time>
      </trkpt>
      <trkpt lat="41.270185" lon="0.784702">
        <ele>897.65</ele>
        <time>2011-07-27T09:07:02.74Z</time>
      </trkpt>
      <trkpt lat="41.270124" lon="0.784752">
        <ele>899.99</ele>
        <time>2011-07-27T09:07:03.22Z</time>
      </trkpt>
      <trkpt lat="41.270194" lon="0.784859">
        <ele>899.29</ele>
        <time>2011-07-27T09:07:03.93Z</time>
      </trkpt>
      <trkpt lat="41.270276" lon="0.784849">
        <ele>896.81</ele>
        <time>2011-07-27T09:07:04.48Z</time>
      </trkpt>
      <trkpt lat="41.270362" lon="0.784834">
        <ele>894.48</ele>
        <time>2011-07-27T09:07:05.06Z</time>
      </trkpt>
      <trkpt lat="41.270465" lon="0.784826">
        <ele>891.41</ele>
        <time>2011-07-27T09:07:05.75Z</time>
      </trkpt>
      <trkpt lat="41.270542" lon="0.784874">
        <ele>889.92</ele>
        <time>2011-07-27T09:07:06.31Z</time>
      </trkpt>
      <trkpt lat="41.270695" lon="0.785163">
        <ele>890.01</ele>
        <time>2011-07-27T09:07:08.09Z</time>
      </trkpt>
      <trkpt lat="41.270704" lon="0.785330">
        <ele>892.32</ele>
        <time>2011-07-27T09:07:08.93Z</time>
      </trkpt>
      <trkpt lat="41.270687" lon="0.785525">
        <ele>895.75</ele>
        <time>2011-07-27T09:07:09.91Z</time>
      </trkpt>
      <trkpt lat="41.270794" lon="0.786109">
        <ele>904.27</ele>
        <time>2011-07-27T09:07:12.92Z</time>
      </trkpt>
      <trkpt lat="41.271061" lon="0.786295">
        <ele>904.08</ele>
        <time>2011-07-27T09:07:14.93Z</time>
      </trkpt>
      <trkpt lat="41.271672" lon="0.786261">
        <ele>894.54</ele>
        <time>2011-07-27T09:07:19.01Z</time>
      </trkpt>
      <trkpt lat="41.272054" lon="0.786515">
        <ele>889.25</ele>
        <time>2011-07-27T09:07:21.85Z</time>
      </trkpt>
      <trkpt lat="41.271799" lon="0.787091">
        <ele>893.63</ele>
        <time>2011-07-27T09:07:25.20Z</time>
      </trkpt>
      <trkpt lat="41.271341" lon="0.787548">
        <ele>896.19</ele>
        <time>2011-07-27T09:07:29.02Z</time>
      </trkpt>
      <trkpt lat="41.270794" lon="0.788141">
        <ele>902.77</ele>
        <time>2011-07-27T09:07:33.72Z</time>
      </trkpt>
      <trkpt lat="41.270705" lon="0.788716">
        <ele>907.31</ele>
        <time>2011-07-27T09:07:36.67Z</time>
      </trkpt>
      <trkpt lat="41.270488" lon="0.789478">
        <ele>921.01</ele>
        <time>2011-07-27T09:07:40.75Z</time>
      </trkpt>
      <trkpt lat="41.270412" lon="0.790020">
        <ele>929.81</ele>
        <time>2011-07-27T09:07:43.51Z</time>
      </trkpt>
      <trkpt lat="41.270501" lon="0.790393">
        <ele>932.84</ele>
        <time>2011-07-27T09:07:45.47Z</time>
      </trkpt>
      <trkpt lat="41.270883" lon="0.790782">
        <ele>927.20</ele>
        <time>2011-07-27T09:07:48.68Z</time>
      </trkpt>
      <trkpt lat="41.271048" lon="0.791578">
        <ele>930.74</ele>
        <time>2011-07-27T09:07:52.82Z</time>
      </trkpt>
      <trkpt lat="41.271239" lon="0.792526">
        <ele>936.04</ele>
        <time>2011-07-27T09:07:57.73Z</time>
      </trkpt>
      <trkpt lat="41.271214" lon="0.792848">
        <ele>944.14</ele>
        <time>2011-07-27T09:07:59.36Z</time>
      </trkpt>
      <trkpt lat="41.271799" lon="0.793440">
        <ele>952.59</ele>
        <time>2011-07-27T09:08:04.26Z</time>
      </trkpt>
      <trkpt lat="41.272206" lon="0.793914">
        <ele>951.23</ele>
        <time>2011-07-27T09:08:07.86Z</time>
      </trkpt>
      <trkpt lat="41.272639" lon="0.794761">
        <ele>936.78</ele>
        <time>2011-07-27T09:08:12.99Z</time>
      </trkpt>
      <trkpt lat="41.273008" lon="0.795370">
        <ele>921.23</ele>
        <time>2011-07-27T09:08:16.91Z</time>
      </trkpt>
      <trkpt lat="41.273313" lon="0.795912">
        <ele>916.72</ele>
        <time>2011-07-27T09:08:20.31Z</time>
      </trkpt>
      <trkpt lat="41.273631" lon="0.796437">
        <ele>917.01</ele>
        <time>2011-07-27T09:08:23.69Z</time>
      </trkpt>
      <trkpt lat="41.273810" lon="0.796979">
        <ele>923.51</ele>
        <time>2011-07-27T09:08:26.65Z</time>
      </trkpt>
      <trkpt lat="41.274179" lon="0.797791">
        <ele>932.47</ele>
        <time>2011-07-27T09:08:31.41Z</time>
      </trkpt>
      <trkpt lat="41.274688" lon="0.799010">
        <ele>959.67</ele>
        <time>2011-07-27T09:08:38.39Z</time>
      </trkpt>
      <trkpt lat="41.275044" lon="0.799671">
        <ele>965.82</ele>
        <time>2011-07-27T09:08:42.47Z</time>
      </trkpt>
      <trkpt lat="41.275057" lon="0.800230">
        <ele>973.84</ele>
        <time>2011-07-27T09:08:45.27Z</time>
      </trkpt>
      <trkpt lat="41.275375" lon="0.801025">
        <ele>962.09</ele>
        <time>2011-07-27T09:08:49.78Z</time>
      </trkpt>
      <trkpt lat="41.275360" lon="0.801908">
        <ele>978.14</ele>
        <time>2011-07-27T09:08:54.21Z</time>
      </trkpt>
      <trkpt lat="41.275366" lon="0.802222">
        <ele>984.84</ele>
        <time>2011-07-27T09:08:55.78Z</time>
      </trkpt>
      <trkpt lat="41.275408" lon="0.802451">
        <ele>988.54</ele>
        <time>2011-07-27T09:08:56.96Z</time>
      </trkpt>
      <trkpt lat="41.275413" lon="0.802651">
        <ele>992.63</ele>
        <time>2011-07-27T09:08:57.96Z</time>
      </trkpt>
      <trkpt lat="41.275604" lon="0.802972">
        <ele>994.46</ele>
        <time>2011-07-27T09:09:00.02Z</time>
      </trkpt>
      <trkpt lat="41.275683" lon="0.803233">
        <ele>998.71</ele>
        <time>2011-07-27T09:09:01.43Z</time>
      </trkpt>
      <trkpt lat="41.275950" lon="0.803317">
        <ele>994.51</ele>
        <time>2011-07-27T09:09:03.25Z</time>
      </trkpt>
      <trkpt lat="41.276167" lon="0.803567">
        <ele>995.63</ele>
        <time>2011-07-27T09:09:05.17Z</time>
      </trkpt>
      <trkpt lat="41.276333" lon="0.803783">
        <ele>997.18</ele>
        <time>2011-07-27T09:09:06.72Z</time>
      </trkpt>
      <trkpt lat="41.276483" lon="0.804000">
        <ele>999.85</ele>
        <time>2011-07-27T09:09:08.19Z</time>
      </trkpt>
      <trkpt lat="41.276567" lon="0.804233">
        <ele>1005.09</ele>
        <time>2011-07-27T09:09:09.49Z</time>
      </trkpt>
      <trkpt lat="41.276600" lon="0.804450">
        <ele>1011.78</ele>
        <time>2011-07-27T09:09:10.60Z</time>
      </trkpt>
      <trkpt lat="41.276710" lon="0.804578">
        <ele>1015.42</ele>
        <time>2011-07-27T09:09:11.57Z</time>
      </trkpt>
      <trkpt lat="41.276769" lon="0.804739">
        <ele>1020.81</ele>
        <time>2011-07-27T09:09:12.47Z</time>
      </trkpt>
      <trkpt lat="41.276719" lon="0.804929">
        <ele>1027.52</ele>
        <time>2011-07-27T09:09:13.48Z</time>
      </trkpt>
      <trkpt lat="41.276815" lon="0.805196">
        <ele>1031.48</ele>
        <time>2011-07-27T09:09:14.96Z</time>
      </trkpt>
      <trkpt lat="41.276900" lon="0.805317">
        <ele>1031.53</ele>
        <time>2011-07-27T09:09:15.79Z</time>
      </trkpt>
      <trkpt lat="41.277133" lon="0.805550">
        <ele>1030.22</ele>
        <time>2011-07-27T09:09:17.73Z</time>
      </trkpt>
      <trkpt lat="41.277283" lon="0.805617">
        <ele>1028.01</ele>
        <time>2011-07-27T09:09:18.79Z</time>
      </trkpt>
      <trkpt lat="41.277467" lon="0.805583">
        <ele>1023.84</ele>
        <time>2011-07-27T09:09:20.03Z</time>
      </trkpt>
      <trkpt lat="41.277517" lon="0.805698">
        <ele>1023.62</ele>
        <time>2011-07-27T09:09:21.50Z</time>
      </trkpt>
      <trkpt lat="41.277545" lon="0.805839">
        <ele>1051.28</ele>
        <time>2012-04-07T13:22:45Z</time>
      </trkpt>
      <trkpt lat="41.277519" lon="0.805950">
        <ele>1052.47</ele>
        <time>2012-04-07T13:22:54Z</time>
      </trkpt>
      <trkpt lat="41.277485" lon="0.806059">
        <ele>1053.89</ele>
        <time>2012-04-07T13:23:04Z</time>
      </trkpt>
      <trkpt lat="41.277488" lon="0.806181">
        <ele>1052.98</ele>
        <time>2012-04-07T13:23:14Z</time>
      </trkpt>
      <trkpt lat="41.277563" lon="0.806197">
        <ele>1049.23</ele>
        <time>2012-04-07T13:23:22Z</time>
      </trkpt>
      <trkpt lat="41.277591" lon="0.806138">
        <ele>1049.64</ele>
        <time>2012-04-07T13:24:00Z</time>
      </trkpt>
      <trkpt lat="41.277598" lon="0.806097">
        <ele>1049.24</ele>
        <time>2012-04-07T13:28:59Z</time>
      </trkpt>
      <trkpt lat="41.277675" lon="0.806025">
        <ele>1046.07</ele>
        <time>2012-04-07T13:29:06Z</time>
      </trkpt>
      <trkpt lat="41.277748" lon="0.805931">
        <ele>1043.42</ele>
        <time>2012-04-07T13:29:15Z</time>
      </trkpt>
      <trkpt lat="41.277804" lon="0.805814">
        <ele>1040.51</ele>
        <time>2012-04-07T13:29:22Z</time>
      </trkpt>
      <trkpt lat="41.277818" lon="0.805707">
        <ele>1038.39</ele>
        <time>2012-04-07T13:29:30Z</time>
      </trkpt>
      <trkpt lat="41.277801" lon="0.805567">
        <ele>1036.44</ele>
        <time>2012-04-07T13:29:39Z</time>
      </trkpt>
      <trkpt lat="41.277799" lon="0.805453">
        <ele>1034.47</ele>
        <time>2012-04-07T13:29:47Z</time>
      </trkpt>
      <trkpt lat="41.277808" lon="0.805345">
        <ele>1031.65</ele>
        <time>2012-04-07T13:29:58Z</time>
      </trkpt>
      <trkpt lat="41.277840" lon="0.805257">
        <ele>1028.68</ele>
        <time>2012-04-07T13:30:15Z</time>
      </trkpt>
      <trkpt lat="41.277867" lon="0.805150">
        <ele>1026.14</ele>
        <time>2012-04-07T13:30:25Z</time>
      </trkpt>
      <trkpt lat="41.277891" lon="0.805062">
        <ele>1024.54</ele>
        <time>2012-04-07T13:30:34Z</time>
      </trkpt>
      <trkpt lat="41.277971" lon="0.804997">
        <ele>1022.33</ele>
        <time>2012-04-07T13:30:47Z</time>
      </trkpt>
      <trkpt lat="41.278025" lon="0.804902">
        <ele>1019.80</ele>
        <time>2012-04-07T13:31:08Z</time>
      </trkpt>
      <trkpt lat="41.278090" lon="0.804838">
        <ele>1018.62</ele>
        <time>2012-04-07T13:31:19Z</time>
      </trkpt>
      <trkpt lat="41.278160" lon="0.804762">
        <ele>1018.71</ele>
        <time>2012-04-07T13:31:30Z</time>
      </trkpt>
      <trkpt lat="41.278226" lon="0.804679">
        <ele>1019.79</ele>
        <time>2012-04-07T13:31:39Z</time>
      </trkpt>
      <trkpt lat="41.278273" lon="0.804614">
        <ele>1018.77</ele>
        <time>2012-04-07T13:34:25Z</time>
      </trkpt>
      <trkpt lat="41.278250" lon="0.804546">
        <ele>1019.62</ele>
        <time>2012-04-07T13:34:34Z</time>
      </trkpt>
      <trkpt lat="41.278268" lon="0.804438">
        <ele>1019.99</ele>
        <time>2012-04-07T13:34:43Z</time>
      </trkpt>
      <trkpt lat="41.278266" lon="0.804311">
        <ele>1020.28</ele>
        <time>2012-04-07T13:34:51Z</time>
      </trkpt>
      <trkpt lat="41.278257" lon="0.804187">
        <ele>1017.32</ele>
        <time>2012-04-07T13:35:00Z</time>
      </trkpt>
      <trkpt lat="41.278247" lon="0.804076">
        <ele>1014.54</ele>
        <time>2012-04-07T13:35:09Z</time>
      </trkpt>
      <trkpt lat="41.278295" lon="0.803991">
        <ele>1013.56</ele>
        <time>2012-04-07T13:35:24Z</time>
      </trkpt>
      <trkpt lat="41.278333" lon="0.803907">
        <ele>1011.54</ele>
        <time>2012-04-07T13:35:39Z</time>
      </trkpt>
      <trkpt lat="41.278418" lon="0.803830">
        <ele>1010.92</ele>
        <time>2012-04-07T13:35:48Z</time>
      </trkpt>
      <trkpt lat="41.278481" lon="0.803749">
        <ele>1009.81</ele>
        <time>2012-04-07T13:35:56Z</time>
      </trkpt>
      <trkpt lat="41.278526" lon="0.803636">
        <ele>1006.62</ele>
        <time>2012-04-07T13:36:06Z</time>
      </trkpt>
      <trkpt lat="41.278595" lon="0.803569">
        <ele>1005.88</ele>
        <time>2012-04-07T13:36:18Z</time>
      </trkpt>
      <trkpt lat="41.278625" lon="0.803469">
        <ele>1004.16</ele>
        <time>2012-04-07T13:36:33Z</time>
      </trkpt>
      <trkpt lat="41.278666" lon="0.803386">
        <ele>1003.02</ele>
        <time>2012-04-07T13:36:44Z</time>
      </trkpt>
      <trkpt lat="41.278694" lon="0.803259">
        <ele>1000.97</ele>
        <time>2012-04-07T13:36:56Z</time>
      </trkpt>
      <trkpt lat="41.278693" lon="0.803128">
        <ele>998.51</ele>
        <time>2012-04-07T13:37:05Z</time>
      </trkpt>
      <trkpt lat="41.278671" lon="0.803052">
        <ele>996.97</ele>
        <time>2012-04-07T13:39:55Z</time>
      </trkpt>
      <trkpt lat="41.278693" lon="0.802936">
        <ele>995.01</ele>
        <time>2012-04-07T13:40:42Z</time>
      </trkpt>
      <trkpt lat="41.278682" lon="0.802859">
        <ele>993.92</ele>
        <time>2012-04-07T13:40:57Z</time>
      </trkpt>
      <trkpt lat="41.278684" lon="0.802739">
        <ele>993.60</ele>
        <time>2012-04-07T13:41:05Z</time>
      </trkpt>
      <trkpt lat="41.278723" lon="0.802637">
        <ele>993.01</ele>
        <time>2012-04-07T13:41:13Z</time>
      </trkpt>
      <trkpt lat="41.278726" lon="0.802526">
        <ele>992.52</ele>
        <time>2012-04-07T13:41:20Z</time>
      </trkpt>
      <trkpt lat="41.278724" lon="0.802459">
        <ele>993.19</ele>
        <time>2012-04-07T13:41:45Z</time>
      </trkpt>
      <trkpt lat="41.278791" lon="0.802391">
        <ele>990.65</ele>
        <time>2012-04-07T13:41:53Z</time>
      </trkpt>
      <trkpt lat="41.278854" lon="0.802284">
        <ele>988.67</ele>
        <time>2012-04-07T13:42:01Z</time>
      </trkpt>
      <trkpt lat="41.278905" lon="0.802173">
        <ele>987.12</ele>
        <time>2012-04-07T13:42:09Z</time>
      </trkpt>
      <trkpt lat="41.278945" lon="0.802064">
        <ele>986.11</ele>
        <time>2012-04-07T13:42:16Z</time>
      </trkpt>
      <trkpt lat="41.279006" lon="0.801962">
        <ele>984.32</ele>
        <time>2012-04-07T13:42:24Z</time>
      </trkpt>
      <trkpt lat="41.279068" lon="0.801847">
        <ele>982.08</ele>
        <time>2012-04-07T13:42:32Z</time>
      </trkpt>
      <trkpt lat="41.279114" lon="0.801733">
        <ele>980.53</ele>
        <time>2012-04-07T13:42:39Z</time>
      </trkpt>
      <trkpt lat="41.279151" lon="0.801618">
        <ele>979.62</ele>
        <time>2012-04-07T13:42:46Z</time>
      </trkpt>
      <trkpt lat="41.279203" lon="0.801509">
        <ele>978.31</ele>
        <time>2012-04-07T13:42:54Z</time>
      </trkpt>
      <trkpt lat="41.279204" lon="0.801376">
        <ele>979.96</ele>
        <time>2012-04-07T13:43:02Z</time>
      </trkpt>
      <trkpt lat="41.279249" lon="0.801272">
        <ele>978.98</ele>
        <time>2012-04-07T13:43:11Z</time>
      </trkpt>
      <trkpt lat="41.279319" lon="0.801175">
        <ele>975.34</ele>
        <time>2012-04-07T13:43:22Z</time>
      </trkpt>
      <trkpt lat="41.279390" lon="0.801086">
        <ele>971.81</ele>
        <time>2012-04-07T13:43:33Z</time>
      </trkpt>
      <trkpt lat="41.279441" lon="0.800976">
        <ele>970.14</ele>
        <time>2012-04-07T13:43:53Z</time>
      </trkpt>
      <trkpt lat="41.279509" lon="0.800896">
        <ele>967.46</ele>
        <time>2012-04-07T13:44:01Z</time>
      </trkpt>
      <trkpt lat="41.279547" lon="0.800775">
        <ele>967.84</ele>
        <time>2012-04-07T13:44:09Z</time>
      </trkpt>
      <trkpt lat="41.279576" lon="0.800645">
        <ele>969.37</ele>
        <time>2012-04-07T13:44:18Z</time>
      </trkpt>
      <trkpt lat="41.279624" lon="0.800525">
        <ele>970.68</ele>
        <time>2012-04-07T13:44:27Z</time>
      </trkpt>
      <trkpt lat="41.279677" lon="0.800414">
        <ele>972.31</ele>
        <time>2012-04-07T13:44:36Z</time>
      </trkpt>
      <trkpt lat="41.279751" lon="0.800355">
        <ele>972.41</ele>
        <time>2012-04-07T13:44:52Z</time>
      </trkpt>
      <trkpt lat="41.279815" lon="0.800264">
        <ele>971.55</ele>
        <time>2012-04-07T13:45:01Z</time>
      </trkpt>
      <trkpt lat="41.279898" lon="0.800185">
        <ele>969.82</ele>
        <time>2012-04-07T13:45:09Z</time>
      </trkpt>
      <trkpt lat="41.279964" lon="0.800085">
        <ele>969.76</ele>
        <time>2012-04-07T13:45:17Z</time>
      </trkpt>
      <trkpt lat="41.280042" lon="0.800010">
        <ele>969.97</ele>
        <time>2012-04-07T13:45:26Z</time>
      </trkpt>
      <trkpt lat="41.280127" lon="0.799948">
        <ele>970.22</ele>
        <time>2012-04-07T13:45:34Z</time>
      </trkpt>
      <trkpt lat="41.280223" lon="0.799902">
        <ele>969.25</ele>
        <time>2012-04-07T13:45:41Z</time>
      </trkpt>
      <trkpt lat="41.280317" lon="0.799902">
        <ele>967.99</ele>
        <time>2012-04-07T13:45:49Z</time>
      </trkpt>
      <trkpt lat="41.280412" lon="0.799883">
        <ele>964.03</ele>
        <time>2012-04-07T13:45:58Z</time>
      </trkpt>
      <trkpt lat="41.280504" lon="0.799875">
        <ele>960.46</ele>
        <time>2012-04-07T13:46:06Z</time>
      </trkpt>
      <trkpt lat="41.280576" lon="0.799794">
        <ele>958.51</ele>
        <time>2012-04-07T13:46:14Z</time>
      </trkpt>
      <trkpt lat="41.280604" lon="0.799675">
        <ele>959.01</ele>
        <time>2012-04-07T13:46:23Z</time>
      </trkpt>
      <trkpt lat="41.280622" lon="0.799581">
        <ele>959.47</ele>
        <time>2012-04-07T13:46:40Z</time>
      </trkpt>
      <trkpt lat="41.280641" lon="0.799474">
        <ele>957.64</ele>
        <time>2012-04-07T13:46:47Z</time>
      </trkpt>
      <trkpt lat="41.280697" lon="0.799389">
        <ele>955.62</ele>
        <time>2012-04-07T13:47:03Z</time>
      </trkpt>
      <trkpt lat="41.280735" lon="0.799283">
        <ele>955.13</ele>
        <time>2012-04-07T13:47:12Z</time>
      </trkpt>
      <trkpt lat="41.280802" lon="0.799189">
        <ele>954.53</ele>
        <time>2012-04-07T13:47:25Z</time>
      </trkpt>
      <trkpt lat="41.280876" lon="0.799126">
        <ele>952.13</ele>
        <time>2012-04-07T13:47:35Z</time>
      </trkpt>
      <trkpt lat="41.280955" lon="0.799075">
        <ele>950.15</ele>
        <time>2012-04-07T13:47:45Z</time>
      </trkpt>
      <trkpt lat="41.281028" lon="0.798990">
        <ele>949.25</ele>
        <time>2012-04-07T13:47:55Z</time>
      </trkpt>
      <trkpt lat="41.281109" lon="0.798920">
        <ele>948.55</ele>
        <time>2012-04-07T13:48:03Z</time>
      </trkpt>
      <trkpt lat="41.281176" lon="0.798837">
        <ele>947.31</ele>
        <time>2012-04-07T13:48:11Z</time>
      </trkpt>
      <trkpt lat="41.281246" lon="0.798772">
        <ele>944.71</ele>
        <time>2012-04-07T13:48:26Z</time>
      </trkpt>
      <trkpt lat="41.281321" lon="0.798730">
        <ele>942.72</ele>
        <time>2012-04-07T13:48:35Z</time>
      </trkpt>
      <trkpt lat="41.281401" lon="0.798736">
        <ele>941.88</ele>
        <time>2012-04-07T13:48:46Z</time>
      </trkpt>
      <trkpt lat="41.281479" lon="0.798661">
        <ele>940.73</ele>
        <time>2012-04-07T13:49:01Z</time>
      </trkpt>
      <trkpt lat="41.281569" lon="0.798627">
        <ele>940.35</ele>
        <time>2012-04-07T13:49:11Z</time>
      </trkpt>
      <trkpt lat="41.281662" lon="0.798588">
        <ele>940.76</ele>
        <time>2012-04-07T13:49:19Z</time>
      </trkpt>
      <trkpt lat="41.281747" lon="0.798543">
        <ele>942.08</ele>
        <time>2012-04-07T13:49:28Z</time>
      </trkpt>
      <trkpt lat="41.281817" lon="0.798475">
        <ele>944.09</ele>
        <time>2012-04-07T13:49:46Z</time>
      </trkpt>
      <trkpt lat="41.281905" lon="0.798439">
        <ele>943.14</ele>
        <time>2012-04-07T13:49:55Z</time>
      </trkpt>
      <trkpt lat="41.281996" lon="0.798391">
        <ele>938.72</ele>
        <time>2012-04-07T13:50:03Z</time>
      </trkpt>
      <trkpt lat="41.282074" lon="0.798331">
        <ele>935.81</ele>
        <time>2012-04-07T13:50:11Z</time>
      </trkpt>
      <trkpt lat="41.282086" lon="0.798294">
        <ele>935.61</ele>
        <time>2012-04-07T13:50:44Z</time>
      </trkpt>
      <trkpt lat="41.282129" lon="0.798173">
        <ele>935.59</ele>
        <time>2012-04-07T13:50:54Z</time>
      </trkpt>
      <trkpt lat="41.282131" lon="0.798053">
        <ele>935.12</ele>
        <time>2012-04-07T13:51:20Z</time>
      </trkpt>
      <trkpt lat="41.282185" lon="0.797965">
        <ele>931.62</ele>
        <time>2012-04-07T13:51:30Z</time>
      </trkpt>
      <trkpt lat="41.282251" lon="0.797890">
        <ele>928.48</ele>
        <time>2012-04-07T13:51:42Z</time>
      </trkpt>
      <trkpt lat="41.282297" lon="0.797811">
        <ele>926.88</ele>
        <time>2012-04-07T13:52:11Z</time>
      </trkpt>
      <trkpt lat="41.282334" lon="0.797710">
        <ele>926.21</ele>
        <time>2012-04-07T13:52:29Z</time>
      </trkpt>
      <trkpt lat="41.282370" lon="0.797589">
        <ele>925.55</ele>
        <time>2012-04-07T13:52:39Z</time>
      </trkpt>
      <trkpt lat="41.282380" lon="0.797458">
        <ele>925.63</ele>
        <time>2012-04-07T13:52:48Z</time>
      </trkpt>
      <trkpt lat="41.282392" lon="0.797324">
        <ele>926.29</ele>
        <time>2012-04-07T13:52:56Z</time>
      </trkpt>
      <trkpt lat="41.282463" lon="0.797316">
        <ele>921.91</ele>
        <time>2012-04-07T13:53:08Z</time>
      </trkpt>
      <trkpt lat="41.282487" lon="0.797204">
        <ele>921.11</ele>
        <time>2012-04-07T13:53:17Z</time>
      </trkpt>
      <trkpt lat="41.282496" lon="0.797084">
        <ele>921.48</ele>
        <time>2012-04-07T13:53:25Z</time>
      </trkpt>
      <trkpt lat="41.282536" lon="0.796969">
        <ele>919.81</ele>
        <time>2012-04-07T13:53:35Z</time>
      </trkpt>
      <trkpt lat="41.282583" lon="0.796856">
        <ele>918.73</ele>
        <time>2012-04-07T13:53:43Z</time>
      </trkpt>
      <trkpt lat="41.282607" lon="0.796828">
        <ele>918.12</ele>
        <time>2012-04-07T13:54:34Z</time>
      </trkpt>
      <trkpt lat="41.282637" lon="0.796747">
        <ele>918.67</ele>
        <time>2012-04-07T13:55:34Z</time>
      </trkpt>
      <trkpt lat="41.282664" lon="0.796621">
        <ele>919.94</ele>
        <time>2012-04-07T13:55:42Z</time>
      </trkpt>
      <trkpt lat="41.282723" lon="0.796533">
        <ele>916.91</ele>
        <time>2012-04-07T13:55:49Z</time>
      </trkpt>
      <trkpt lat="41.282766" lon="0.796429">
        <ele>916.13</ele>
        <time>2012-04-07T13:55:56Z</time>
      </trkpt>
      <trkpt lat="41.282802" lon="0.796294">
        <ele>917.03</ele>
        <time>2012-04-07T13:56:04Z</time>
      </trkpt>
      <trkpt lat="41.282861" lon="0.796191">
        <ele>914.61</ele>
        <time>2012-04-07T13:56:12Z</time>
      </trkpt>
      <trkpt lat="41.282928" lon="0.796094">
        <ele>912.91</ele>
        <time>2012-04-07T13:56:19Z</time>
      </trkpt>
      <trkpt lat="41.282993" lon="0.796002">
        <ele>912.67</ele>
        <time>2012-04-07T13:56:26Z</time>
      </trkpt>
      <trkpt lat="41.283046" lon="0.795906">
        <ele>912.26</ele>
        <time>2012-04-07T13:56:34Z</time>
      </trkpt>
      <trkpt lat="41.283099" lon="0.795841">
        <ele>908.95</ele>
        <time>2012-04-07T13:56:44Z</time>
      </trkpt>
      <trkpt lat="41.283168" lon="0.795915">
        <ele>910.08</ele>
        <time>2012-04-07T13:56:52Z</time>
      </trkpt>
      <trkpt lat="41.283266" lon="0.795856">
        <ele>907.32</ele>
        <time>2012-04-07T13:56:59Z</time>
      </trkpt>
      <trkpt lat="41.283343" lon="0.795766">
        <ele>904.86</ele>
        <time>2012-04-07T13:57:05Z</time>
      </trkpt>
      <trkpt lat="41.283412" lon="0.795654">
        <ele>902.58</ele>
        <time>2012-04-07T13:57:13Z</time>
      </trkpt>
      <trkpt lat="41.283478" lon="0.795543">
        <ele>900.49</ele>
        <time>2012-04-07T13:57:21Z</time>
      </trkpt>
      <trkpt lat="41.283545" lon="0.795446">
        <ele>897.11</ele>
        <time>2012-04-07T13:57:28Z</time>
      </trkpt>
      <trkpt lat="41.283637" lon="0.795372">
        <ele>895.43</ele>
        <time>2012-04-07T13:57:36Z</time>
      </trkpt>
      <trkpt lat="41.283724" lon="0.795343">
        <ele>895.11</ele>
        <time>2012-04-07T13:57:44Z</time>
      </trkpt>
      <trkpt lat="41.283786" lon="0.795263">
        <ele>892.69</ele>
        <time>2012-04-07T13:57:52Z</time>
      </trkpt>
      <trkpt lat="41.283812" lon="0.795182">
        <ele>891.58</ele>
        <time>2012-04-07T13:57:58Z</time>
      </trkpt>
      <trkpt lat="41.283881" lon="0.795080">
        <ele>890.79</ele>
        <time>2012-04-07T13:58:06Z</time>
      </trkpt>
      <trkpt lat="41.283939" lon="0.794968">
        <ele>891.79</ele>
        <time>2012-04-07T13:58:15Z</time>
      </trkpt>
      <trkpt lat="41.283963" lon="0.794852">
        <ele>893.39</ele>
        <time>2012-04-07T13:58:22Z</time>
      </trkpt>
      <trkpt lat="41.283990" lon="0.794715">
        <ele>889.85</ele>
        <time>2012-04-07T13:58:30Z</time>
      </trkpt>
      <trkpt lat="41.284049" lon="0.794608">
        <ele>887.10</ele>
        <time>2012-04-07T13:58:37Z</time>
      </trkpt>
      <trkpt lat="41.284139" lon="0.794550">
        <ele>888.08</ele>
        <time>2012-04-07T13:58:46Z</time>
      </trkpt>
      <trkpt lat="41.284214" lon="0.794507">
        <ele>890.09</ele>
        <time>2012-04-07T13:59:06Z</time>
      </trkpt>
      <trkpt lat="41.284303" lon="0.794514">
        <ele>889.02</ele>
        <time>2012-04-07T13:59:17Z</time>
      </trkpt>
      <trkpt lat="41.284366" lon="0.794414">
        <ele>888.31</ele>
        <time>2012-04-07T13:59:26Z</time>
      </trkpt>
      <trkpt lat="41.284423" lon="0.794319">
        <ele>887.16</ele>
        <time>2012-04-07T13:59:34Z</time>
      </trkpt>
      <trkpt lat="41.284513" lon="0.794265">
        <ele>888.15</ele>
        <time>2012-04-07T13:59:44Z</time>
      </trkpt>
      <trkpt lat="41.284601" lon="0.794221">
        <ele>885.45</ele>
        <time>2012-04-07T13:59:51Z</time>
      </trkpt>
      <trkpt lat="41.284651" lon="0.794112">
        <ele>886.05</ele>
        <time>2012-04-07T13:59:59Z</time>
      </trkpt>
      <trkpt lat="41.284711" lon="0.794021">
        <ele>885.05</ele>
        <time>2012-04-07T14:00:07Z</time>
      </trkpt>
      <trkpt lat="41.284759" lon="0.793935">
        <ele>885.18</ele>
        <time>2012-04-07T14:00:35Z</time>
      </trkpt>
      <trkpt lat="41.284802" lon="0.793813">
        <ele>886.36</ele>
        <time>2012-04-07T14:00:45Z</time>
      </trkpt>
      <trkpt lat="41.284870" lon="0.793725">
        <ele>888.83</ele>
        <time>2012-04-07T14:00:56Z</time>
      </trkpt>
      <trkpt lat="41.284965" lon="0.793705">
        <ele>890.66</ele>
        <time>2012-04-07T14:01:08Z</time>
      </trkpt>
      <trkpt lat="41.285048" lon="0.793645">
        <ele>890.91</ele>
        <time>2012-04-07T14:01:18Z</time>
      </trkpt>
      <trkpt lat="41.285120" lon="0.793600">
        <ele>888.91</ele>
        <time>2012-04-07T14:01:25Z</time>
      </trkpt>
      <trkpt lat="41.285196" lon="0.793525">
        <ele>887.47</ele>
        <time>2012-04-07T14:01:33Z</time>
      </trkpt>
      <trkpt lat="41.285276" lon="0.793473">
        <ele>886.59</ele>
        <time>2012-04-07T14:01:41Z</time>
      </trkpt>
      <trkpt lat="41.285364" lon="0.793419">
        <ele>884.51</ele>
        <time>2012-04-07T14:01:49Z</time>
      </trkpt>
      <trkpt lat="41.285456" lon="0.793394">
        <ele>881.53</ele>
        <time>2012-04-07T14:01:57Z</time>
      </trkpt>
      <trkpt lat="41.285545" lon="0.793342">
        <ele>879.58</ele>
        <time>2012-04-07T14:02:05Z</time>
      </trkpt>
      <trkpt lat="41.285626" lon="0.793317">
        <ele>875.08</ele>
        <time>2012-04-07T14:02:15Z</time>
      </trkpt>
      <trkpt lat="41.285701" lon="0.793238">
        <ele>870.14</ele>
        <time>2012-04-07T14:02:27Z</time>
      </trkpt>
      <trkpt lat="41.285781" lon="0.793149">
        <ele>865.98</ele>
        <time>2012-04-07T14:02:38Z</time>
      </trkpt>
      <trkpt lat="41.285863" lon="0.793065">
        <ele>862.46</ele>
        <time>2012-04-07T14:02:48Z</time>
      </trkpt>
      <trkpt lat="41.285901" lon="0.792966">
        <ele>862.03</ele>
        <time>2012-04-07T14:02:59Z</time>
      </trkpt>
      <trkpt lat="41.285969" lon="0.792906">
        <ele>858.61</ele>
        <time>2012-04-07T14:03:11Z</time>
      </trkpt>
      <trkpt lat="41.286040" lon="0.792845">
        <ele>855.44</ele>
        <time>2012-04-07T14:03:23Z</time>
      </trkpt>
      <trkpt lat="41.286120" lon="0.792758">
        <ele>851.95</ele>
        <time>2012-04-07T14:03:34Z</time>
      </trkpt>
      <trkpt lat="41.286191" lon="0.792668">
        <ele>849.25</ele>
        <time>2012-04-07T14:03:44Z</time>
      </trkpt>
      <trkpt lat="41.286269" lon="0.792680">
        <ele>846.67</ele>
        <time>2012-04-07T14:03:53Z</time>
      </trkpt>
      <trkpt lat="41.286355" lon="0.792711">
        <ele>843.70</ele>
        <time>2012-04-07T14:04:03Z</time>
      </trkpt>
      <trkpt lat="41.286441" lon="0.792720">
        <ele>840.85</ele>
        <time>2012-04-07T14:04:15Z</time>
      </trkpt>
      <trkpt lat="41.286535" lon="0.792703">
        <ele>837.99</ele>
        <time>2012-04-07T14:04:26Z</time>
      </trkpt>
      <trkpt lat="41.286616" lon="0.792626">
        <ele>836.03</ele>
        <time>2012-04-07T14:04:35Z</time>
      </trkpt>
      <trkpt lat="41.286709" lon="0.792622">
        <ele>832.79</ele>
        <time>2012-04-07T14:04:45Z</time>
      </trkpt>
      <trkpt lat="41.286763" lon="0.792546">
        <ele>830.62</ele>
        <time>2012-04-07T14:04:55Z</time>
      </trkpt>
      <trkpt lat="41.286825" lon="0.792449">
        <ele>827.41</ele>
        <time>2012-04-07T14:05:09Z</time>
      </trkpt>
      <trkpt lat="41.286900" lon="0.792370">
        <ele>824.24</ele>
        <time>2012-04-07T14:05:23Z</time>
      </trkpt>
      <trkpt lat="41.286925" lon="0.792227">
        <ele>822.13</ele>
        <time>2012-04-07T14:05:34Z</time>
      </trkpt>
      <trkpt lat="41.286896" lon="0.792089">
        <ele>821.16</ele>
        <time>2012-04-07T14:05:42Z</time>
      </trkpt>
      <trkpt lat="41.286864" lon="0.791960">
        <ele>819.89</ele>
        <time>2012-04-07T14:05:51Z</time>
      </trkpt>
      <trkpt lat="41.286899" lon="0.791852">
        <ele>817.66</ele>
        <time>2012-04-07T14:06:01Z</time>
      </trkpt>
      <trkpt lat="41.286971" lon="0.791784">
        <ele>814.84</ele>
        <time>2012-04-07T14:06:12Z</time>
      </trkpt>
      <trkpt lat="41.287021" lon="0.791652">
        <ele>811.98</ele>
        <time>2012-04-07T14:06:22Z</time>
      </trkpt>
      <trkpt lat="41.287052" lon="0.791528">
        <ele>809.88</ele>
        <time>2012-04-07T14:06:30Z</time>
      </trkpt>
      <trkpt lat="41.287110" lon="0.791424">
        <ele>808.04</ele>
        <time>2012-04-07T14:06:38Z</time>
      </trkpt>
      <trkpt lat="41.287171" lon="0.791311">
        <ele>805.82</ele>
        <time>2012-04-07T14:06:45Z</time>
      </trkpt>
      <trkpt lat="41.287221" lon="0.791172">
        <ele>803.41</ele>
        <time>2012-04-07T14:06:53Z</time>
      </trkpt>
      <trkpt lat="41.287269" lon="0.791051">
        <ele>801.57</ele>
        <time>2012-04-07T14:07:00Z</time>
      </trkpt>
      <trkpt lat="41.287342" lon="0.790976">
        <ele>799.75</ele>
        <time>2012-04-07T14:07:08Z</time>
      </trkpt>
      <trkpt lat="41.287393" lon="0.790891">
        <ele>799.30</ele>
        <time>2012-04-07T14:07:18Z</time>
      </trkpt>
      <trkpt lat="41.287418" lon="0.790767">
        <ele>799.53</ele>
        <time>2012-04-07T14:07:27Z</time>
      </trkpt>
      <trkpt lat="41.287446" lon="0.790636">
        <ele>796.70</ele>
        <time>2012-04-07T14:07:35Z</time>
      </trkpt>
      <trkpt lat="41.287452" lon="0.790476">
        <ele>794.40</ele>
        <time>2012-04-07T14:07:43Z</time>
      </trkpt>
      <trkpt lat="41.287489" lon="0.790352">
        <ele>791.36</ele>
        <time>2012-04-07T14:07:51Z</time>
      </trkpt>
      <trkpt lat="41.287517" lon="0.790242">
        <ele>788.46</ele>
        <time>2012-04-07T14:08:01Z</time>
      </trkpt>
      <trkpt lat="41.287563" lon="0.790120">
        <ele>785.25</ele>
        <time>2012-04-07T14:08:12Z</time>
      </trkpt>
      <trkpt lat="41.287546" lon="0.789997">
        <ele>783.12</ele>
        <time>2012-04-07T14:08:22Z</time>
      </trkpt>
      <trkpt lat="41.287566" lon="0.789873">
        <ele>780.21</ele>
        <time>2012-04-07T14:08:36Z</time>
      </trkpt>
      <trkpt lat="41.287584" lon="0.789765">
        <ele>777.88</ele>
        <time>2012-04-07T14:08:53Z</time>
      </trkpt>
      <trkpt lat="41.287624" lon="0.789650">
        <ele>775.45</ele>
        <time>2012-04-07T14:09:05Z</time>
      </trkpt>
      <trkpt lat="41.287610" lon="0.789522">
        <ele>772.71</ele>
        <time>2012-04-07T14:09:17Z</time>
      </trkpt>
      <trkpt lat="41.287666" lon="0.789427">
        <ele>770.96</ele>
        <time>2012-04-07T14:09:27Z</time>
      </trkpt>
      <trkpt lat="41.287679" lon="0.789313">
        <ele>768.63</ele>
        <time>2012-04-07T14:09:40Z</time>
      </trkpt>
      <trkpt lat="41.287694" lon="0.789195">
        <ele>765.19</ele>
        <time>2012-04-07T14:09:51Z</time>
      </trkpt>
      <trkpt lat="41.287771" lon="0.789111">
        <ele>763.18</ele>
        <time>2012-04-07T14:09:59Z</time>
      </trkpt>
      <trkpt lat="41.287863" lon="0.789089">
        <ele>763.02</ele>
        <time>2012-04-07T14:10:07Z</time>
      </trkpt>
      <trkpt lat="41.287955" lon="0.789096">
        <ele>762.96</ele>
        <time>2012-04-07T14:10:16Z</time>
      </trkpt>
      <trkpt lat="41.288044" lon="0.789129">
        <ele>762.51</ele>
        <time>2012-04-07T14:10:25Z</time>
      </trkpt>
      <trkpt lat="41.288140" lon="0.789126">
        <ele>761.11</ele>
        <time>2012-04-07T14:10:33Z</time>
      </trkpt>
      <trkpt lat="41.288201" lon="0.789070">
        <ele>759.03</ele>
        <time>2012-04-07T14:10:43Z</time>
      </trkpt>
      <trkpt lat="41.288277" lon="0.789015">
        <ele>756.61</ele>
        <time>2012-04-07T14:10:53Z</time>
      </trkpt>
      <trkpt lat="41.288365" lon="0.788997">
        <ele>754.84</ele>
        <time>2012-04-07T14:11:01Z</time>
      </trkpt>
      <trkpt lat="41.288410" lon="0.788883">
        <ele>751.74</ele>
        <time>2012-04-07T14:11:10Z</time>
      </trkpt>
      <trkpt lat="41.288465" lon="0.788791">
        <ele>747.95</ele>
        <time>2012-04-07T14:11:19Z</time>
      </trkpt>
      <trkpt lat="41.288534" lon="0.788719">
        <ele>743.91</ele>
        <time>2012-04-07T14:11:32Z</time>
      </trkpt>
      <trkpt lat="41.288596" lon="0.788627">
        <ele>740.63</ele>
        <time>2012-04-07T14:11:46Z</time>
      </trkpt>
      <trkpt lat="41.288679" lon="0.788585">
        <ele>738.69</ele>
        <time>2012-04-07T14:11:57Z</time>
      </trkpt>
      <trkpt lat="41.288731" lon="0.788502">
        <ele>735.54</ele>
        <time>2012-04-07T14:12:07Z</time>
      </trkpt>
      <trkpt lat="41.288760" lon="0.788387">
        <ele>731.53</ele>
        <time>2012-04-07T14:12:17Z</time>
      </trkpt>
      <trkpt lat="41.288826" lon="0.788308">
        <ele>727.41</ele>
        <time>2012-04-07T14:12:28Z</time>
      </trkpt>
      <trkpt lat="41.288882" lon="0.788218">
        <ele>724.05</ele>
        <time>2012-04-07T14:12:40Z</time>
      </trkpt>
      <trkpt lat="41.288907" lon="0.788102">
        <ele>720.76</ele>
        <time>2012-04-07T14:12:51Z</time>
      </trkpt>
      <trkpt lat="41.288947" lon="0.788005">
        <ele>717.70</ele>
        <time>2012-04-07T14:13:06Z</time>
      </trkpt>
      <trkpt lat="41.288975" lon="0.787920">
        <ele>715.37</ele>
        <time>2012-04-07T14:13:28Z</time>
      </trkpt>
      <trkpt lat="41.289043" lon="0.787866">
        <ele>712.04</ele>
        <time>2012-04-07T14:13:44Z</time>
      </trkpt>
      <trkpt lat="41.289118" lon="0.787790">
        <ele>708.40</ele>
        <time>2012-04-07T14:13:58Z</time>
      </trkpt>
      <trkpt lat="41.289177" lon="0.787691">
        <ele>705.41</ele>
        <time>2012-04-07T14:14:11Z</time>
      </trkpt>
      <trkpt lat="41.289229" lon="0.787584">
        <ele>703.73</ele>
        <time>2012-04-07T14:14:23Z</time>
      </trkpt>
      <trkpt lat="41.289284" lon="0.787490">
        <ele>701.47</ele>
        <time>2012-04-07T14:14:34Z</time>
      </trkpt>
      <trkpt lat="41.289348" lon="0.787397">
        <ele>698.51</ele>
        <time>2012-04-07T14:14:42Z</time>
      </trkpt>
      <trkpt lat="41.289419" lon="0.787341">
        <ele>696.41</ele>
        <time>2012-04-07T14:14:50Z</time>
      </trkpt>
      <trkpt lat="41.289436" lon="0.787217">
        <ele>695.78</ele>
        <time>2012-04-07T14:14:59Z</time>
      </trkpt>
      <trkpt lat="41.289478" lon="0.787099">
        <ele>694.94</ele>
        <time>2012-04-07T14:15:09Z</time>
      </trkpt>
      <trkpt lat="41.289568" lon="0.787036">
        <ele>690.86</ele>
        <time>2012-04-07T14:15:18Z</time>
      </trkpt>
      <trkpt lat="41.289622" lon="0.786933">
        <ele>686.99</ele>
        <time>2012-04-07T14:15:27Z</time>
      </trkpt>
      <trkpt lat="41.289649" lon="0.786808">
        <ele>683.89</ele>
        <time>2012-04-07T14:15:35Z</time>
      </trkpt>
      <trkpt lat="41.289652" lon="0.786685">
        <ele>681.49</ele>
        <time>2012-04-07T14:15:44Z</time>
      </trkpt>
      <trkpt lat="41.289680" lon="0.786566">
        <ele>677.65</ele>
        <time>2012-04-07T14:15:56Z</time>
      </trkpt>
      <trkpt lat="41.289653" lon="0.786446">
        <ele>676.05</ele>
        <time>2012-04-07T14:16:05Z</time>
      </trkpt>
      <trkpt lat="41.289656" lon="0.786316">
        <ele>672.40</ele>
        <time>2012-04-07T14:16:15Z</time>
      </trkpt>
      <trkpt lat="41.289662" lon="0.786199">
        <ele>668.71</ele>
        <time>2012-04-07T14:16:28Z</time>
      </trkpt>
      <trkpt lat="41.289670" lon="0.786092">
        <ele>665.41</ele>
        <time>2012-04-07T14:16:41Z</time>
      </trkpt>
      <trkpt lat="41.289684" lon="0.785973">
        <ele>662.06</ele>
        <time>2012-04-07T14:16:57Z</time>
      </trkpt>
      <trkpt lat="41.289700" lon="0.785862">
        <ele>659.37</ele>
        <time>2012-04-07T14:17:11Z</time>
      </trkpt>
      <trkpt lat="41.289757" lon="0.785773">
        <ele>656.33</ele>
        <time>2012-04-07T14:17:21Z</time>
      </trkpt>
      <trkpt lat="41.289778" lon="0.785686">
        <ele>653.67</ele>
        <time>2012-04-07T14:17:33Z</time>
      </trkpt>
      <trkpt lat="41.289795" lon="0.785577">
        <ele>651.23</ele>
        <time>2012-04-07T14:17:51Z</time>
      </trkpt>
      <trkpt lat="41.289835" lon="0.785468">
        <ele>648.12</ele>
        <time>2012-04-07T14:18:05Z</time>
      </trkpt>
      <trkpt lat="41.289883" lon="0.785348">
        <ele>645.04</ele>
        <time>2012-04-07T14:18:17Z</time>
      </trkpt>
      <trkpt lat="41.289893" lon="0.785220">
        <ele>643.38</ele>
        <time>2012-04-07T14:18:26Z</time>
      </trkpt>
      <trkpt lat="41.289918" lon="0.785099">
        <ele>641.63</ele>
        <time>2012-04-07T14:18:34Z</time>
      </trkpt>
      <trkpt lat="41.289952" lon="0.784994">
        <ele>640.42</ele>
        <time>2012-04-07T14:18:49Z</time>
      </trkpt>
      <trkpt lat="41.289938" lon="0.784890">
        <ele>638.11</ele>
        <time>2012-04-07T14:19:08Z</time>
      </trkpt>
      <trkpt lat="41.289961" lon="0.784780">
        <ele>634.39</ele>
        <time>2012-04-07T14:19:23Z</time>
      </trkpt>
      <trkpt lat="41.290016" lon="0.784690">
        <ele>631.24</ele>
        <time>2012-04-07T14:19:35Z</time>
      </trkpt>
      <trkpt lat="41.290087" lon="0.784630">
        <ele>629.36</ele>
        <time>2012-04-07T14:19:46Z</time>
      </trkpt>
      <trkpt lat="41.290167" lon="0.784561">
        <ele>627.72</ele>
        <time>2012-04-07T14:19:56Z</time>
      </trkpt>
      <trkpt lat="41.290236" lon="0.784477">
        <ele>624.54</ele>
        <time>2012-04-07T14:20:05Z</time>
      </trkpt>
      <trkpt lat="41.290312" lon="0.784398">
        <ele>620.06</ele>
        <time>2012-04-07T14:20:13Z</time>
      </trkpt>
      <trkpt lat="41.290389" lon="0.784334">
        <ele>616.34</ele>
        <time>2012-04-07T14:20:22Z</time>
      </trkpt>
      <trkpt lat="41.290453" lon="0.784269">
        <ele>613.76</ele>
        <time>2012-04-07T14:20:33Z</time>
      </trkpt>
      <trkpt lat="41.290529" lon="0.784228">
        <ele>611.90</ele>
        <time>2012-04-07T14:20:54Z</time>
      </trkpt>
      <trkpt lat="41.290498" lon="0.784139">
        <ele>609.02</ele>
        <time>2012-04-07T14:21:16Z</time>
      </trkpt>
      <trkpt lat="41.290434" lon="0.784066">
        <ele>606.21</ele>
        <time>2012-04-07T14:21:29Z</time>
      </trkpt>
      <trkpt lat="41.290341" lon="0.784037">
        <ele>605.46</ele>
        <time>2012-04-07T14:21:39Z</time>
      </trkpt>
      <trkpt lat="41.290262" lon="0.784114">
        <ele>609.17</ele>
        <time>2012-04-07T14:21:47Z</time>
      </trkpt>
      <trkpt lat="41.290191" lon="0.784177">
        <ele>611.03</ele>
        <time>2012-04-07T14:21:58Z</time>
      </trkpt>
      <trkpt lat="41.290125" lon="0.784158">
        <ele>609.13</ele>
        <time>2012-04-07T14:22:33Z</time>
      </trkpt>
      <trkpt lat="41.290056" lon="0.784117">
        <ele>606.20</ele>
        <time>2012-04-07T14:22:46Z</time>
      </trkpt>
      <trkpt lat="41.289982" lon="0.784048">
        <ele>601.88</ele>
        <time>2012-04-07T14:22:59Z</time>
      </trkpt>
      <trkpt lat="41.289935" lon="0.783921">
        <ele>596.19</ele>
        <time>2012-04-07T14:23:10Z</time>
      </trkpt>
      <trkpt lat="41.289854" lon="0.783859">
        <ele>593.29</ele>
        <time>2012-04-07T14:23:19Z</time>
      </trkpt>
      <trkpt lat="41.289763" lon="0.783866">
        <ele>593.42</ele>
        <time>2012-04-07T14:23:30Z</time>
      </trkpt>
      <trkpt lat="41.289699" lon="0.783906">
        <ele>594.73</ele>
        <time>2012-04-07T14:23:55Z</time>
      </trkpt>
      <trkpt lat="41.289620" lon="0.783973">
        <ele>594.21</ele>
        <time>2012-04-07T14:24:04Z</time>
      </trkpt>
      <trkpt lat="41.289560" lon="0.784064">
        <ele>596.07</ele>
        <time>2012-04-07T14:24:13Z</time>
      </trkpt>
      <trkpt lat="41.289500" lon="0.784150">
        <ele>598.03</ele>
        <time>2012-04-07T14:24:24Z</time>
      </trkpt>
      <trkpt lat="41.289415" lon="0.784202">
        <ele>597.85</ele>
        <time>2012-04-07T14:24:33Z</time>
      </trkpt>
      <trkpt lat="41.289334" lon="0.784169">
        <ele>594.27</ele>
        <time>2012-04-07T14:24:45Z</time>
      </trkpt>
      <trkpt lat="41.289312" lon="0.784083">
        <ele>589.74</ele>
        <time>2012-04-07T14:25:01Z</time>
      </trkpt>
      <trkpt lat="41.289393" lon="0.784069">
        <ele>590.59</ele>
        <time>2012-04-07T14:25:15Z</time>
      </trkpt>
      <trkpt lat="41.289349" lon="0.783979">
        <ele>585.46</ele>
        <time>2012-04-07T14:25:31Z</time>
      </trkpt>
      <trkpt lat="41.289327" lon="0.783861">
        <ele>579.89</ele>
        <time>2012-04-07T14:25:44Z</time>
      </trkpt>
      <trkpt lat="41.289366" lon="0.783771">
        <ele>576.42</ele>
        <time>2012-04-07T14:25:57Z</time>
      </trkpt>
      <trkpt lat="41.289391" lon="0.783666">
        <ele>572.03</ele>
        <time>2012-04-07T14:26:07Z</time>
      </trkpt>
      <trkpt lat="41.289412" lon="0.783556">
        <ele>567.11</ele>
        <time>2012-04-07T14:26:17Z</time>
      </trkpt>
      <trkpt lat="41.289458" lon="0.783462">
        <ele>564.81</ele>
        <time>2012-04-07T14:26:32Z</time>
      </trkpt>
      <trkpt lat="41.289496" lon="0.783361">
        <ele>562.69</ele>
        <time>2012-04-07T14:26:46Z</time>
      </trkpt>
      <trkpt lat="41.289561" lon="0.783302">
        <ele>562.65</ele>
        <time>2012-04-07T14:27:00Z</time>
      </trkpt>
      <trkpt lat="41.289610" lon="0.783189">
        <ele>558.82</ele>
        <time>2012-04-07T14:27:10Z</time>
      </trkpt>
      <trkpt lat="41.289729" lon="0.783056">
        <ele>553.17</ele>
        <time>2012-04-07T14:28:01Z</time>
      </trkpt>
      <trkpt lat="41.289839" lon="0.783003">
        <ele>548.66</ele>
        <time>2012-04-07T14:28:10Z</time>
      </trkpt>
      <trkpt lat="41.289942" lon="0.783002">
        <ele>547.23</ele>
        <time>2012-04-07T14:28:18Z</time>
      </trkpt>
      <trkpt lat="41.290040" lon="0.783049">
        <ele>549.12</ele>
        <time>2012-04-07T14:28:27Z</time>
      </trkpt>
      <trkpt lat="41.290131" lon="0.783105">
        <ele>551.69</ele>
        <time>2012-04-07T14:28:36Z</time>
      </trkpt>
      <trkpt lat="41.290236" lon="0.783088">
        <ele>549.32</ele>
        <time>2012-04-07T14:28:47Z</time>
      </trkpt>
      <trkpt lat="41.290332" lon="0.783050">
        <ele>547.21</ele>
        <time>2012-04-07T14:28:56Z</time>
      </trkpt>
      <trkpt lat="41.290436" lon="0.783048">
        <ele>547.38</ele>
        <time>2012-04-07T14:29:04Z</time>
      </trkpt>
      <trkpt lat="41.290539" lon="0.783051">
        <ele>548.02</ele>
        <time>2012-04-07T14:29:12Z</time>
      </trkpt>
      <trkpt lat="41.290721" lon="0.782979">
        <ele>546.86</ele>
        <time>2012-04-07T14:29:27Z</time>
      </trkpt>
      <trkpt lat="41.290803" lon="0.782926">
        <ele>544.07</ele>
        <time>2012-04-07T14:29:37Z</time>
      </trkpt>
      <trkpt lat="41.290895" lon="0.782926">
        <ele>541.73</ele>
        <time>2012-04-07T14:29:45Z</time>
      </trkpt>
      <trkpt lat="41.290989" lon="0.782953">
        <ele>540.88</ele>
        <time>2012-04-07T14:29:53Z</time>
      </trkpt>
      <trkpt lat="41.291078" lon="0.782962">
        <ele>538.88</ele>
        <time>2012-04-07T14:30:02Z</time>
      </trkpt>
      <trkpt lat="41.291159" lon="0.782991">
        <ele>537.56</ele>
        <time>2012-04-07T14:30:10Z</time>
      </trkpt>
      <trkpt lat="41.291261" lon="0.783004">
        <ele>534.71</ele>
        <time>2012-04-07T14:30:20Z</time>
      </trkpt>
      <trkpt lat="41.291351" lon="0.783011">
        <ele>532.12</ele>
        <time>2012-04-07T14:30:30Z</time>
      </trkpt>
      <trkpt lat="41.291437" lon="0.783050">
        <ele>531.41</ele>
        <time>2012-04-07T14:30:38Z</time>
      </trkpt>
      <trkpt lat="41.291536" lon="0.783071">
        <ele>529.20</ele>
        <time>2012-04-07T14:30:48Z</time>
      </trkpt>
      <trkpt lat="41.291624" lon="0.783090">
        <ele>527.83</ele>
        <time>2012-04-07T14:30:58Z</time>
      </trkpt>
      <trkpt lat="41.291717" lon="0.783105">
        <ele>527.23</ele>
        <time>2012-04-07T14:31:08Z</time>
      </trkpt>
      <trkpt lat="41.291814" lon="0.783099">
        <ele>525.75</ele>
        <time>2012-04-07T14:31:16Z</time>
      </trkpt>
      <trkpt lat="41.291914" lon="0.783110">
        <ele>523.29</ele>
        <time>2012-04-07T14:31:24Z</time>
      </trkpt>
      <trkpt lat="41.291982" lon="0.783189">
        <ele>522.28</ele>
        <time>2012-04-07T14:31:31Z</time>
      </trkpt>
      <trkpt lat="41.292016" lon="0.783292">
        <ele>522.48</ele>
        <time>2012-04-07T14:31:42Z</time>
      </trkpt>
      <trkpt lat="41.292039" lon="0.783382">
        <ele>522.89</ele>
        <time>2012-04-07T14:32:00Z</time>
      </trkpt>
      <trkpt lat="41.292087" lon="0.783592">
        <ele>516.06</ele>
        <time>2012-04-07T14:32:57Z</time>
      </trkpt>
      <trkpt lat="41.292095" lon="0.783693">
        <ele>511.82</ele>
        <time>2012-04-07T14:33:16Z</time>
      </trkpt>
      <trkpt lat="41.292071" lon="0.783819">
        <ele>507.71</ele>
        <time>2012-04-07T14:33:35Z</time>
      </trkpt>
      <trkpt lat="41.292154" lon="0.783776">
        <ele>504.97</ele>
        <time>2012-04-07T14:33:52Z</time>
      </trkpt>
      <trkpt lat="41.292224" lon="0.783709">
        <ele>498.56</ele>
        <time>2012-04-07T14:34:09Z</time>
      </trkpt>
      <trkpt lat="41.292356" lon="0.783843">
        <ele>480.20</ele>
        <time>2012-04-07T14:34:13Z</time>
      </trkpt>
      <trkpt lat="41.292561" lon="0.783813">
        <ele>465.01</ele>
        <time>2012-04-07T14:34:30Z</time>
      </trkpt>
      <trkpt lat="41.292558" lon="0.783662">
        <ele>467.69</ele>
        <time>2012-04-07T14:34:41Z</time>
      </trkpt>
      <trkpt lat="41.292608" lon="0.783578">
        <ele>466.05</ele>
        <time>2012-04-07T14:34:54Z</time>
      </trkpt>
      <trkpt lat="41.292669" lon="0.783493">
        <ele>463.90</ele>
        <time>2012-04-07T14:35:04Z</time>
      </trkpt>
      <trkpt lat="41.292782" lon="0.783460">
        <ele>459.16</ele>
        <time>2012-04-07T14:35:16Z</time>
      </trkpt>
      <trkpt lat="41.292683" lon="0.782924">
        <ele>470.26</ele>
        <time>2012-04-07T14:35:36Z</time>
      </trkpt>
      <trkpt lat="41.292701" lon="0.782848">
        <ele>468.91</ele>
        <time>2012-04-07T14:35:47Z</time>
      </trkpt>
      <trkpt lat="41.292759" lon="0.782852">
        <ele>466.41</ele>
        <time>2012-04-07T14:36:04Z</time>
      </trkpt>
      <trkpt lat="41.292787" lon="0.782643">
        <ele>463.15</ele>
        <time>2012-04-07T14:36:25Z</time>
      </trkpt>
      <trkpt lat="41.292872" lon="0.782577">
        <ele>458.42</ele>
        <time>2012-04-07T14:36:40Z</time>
      </trkpt>
      <trkpt lat="41.292938" lon="0.782477">
        <ele>454.11</ele>
        <time>2012-04-07T14:36:54Z</time>
      </trkpt>
      <trkpt lat="41.292977" lon="0.782348">
        <ele>450.45</ele>
        <time>2012-04-07T14:37:07Z</time>
      </trkpt>
      <trkpt lat="41.293065" lon="0.782325">
        <ele>447.47</ele>
        <time>2012-04-07T14:37:19Z</time>
      </trkpt>
      <trkpt lat="41.293127" lon="0.782267">
        <ele>444.48</ele>
        <time>2012-04-07T14:37:29Z</time>
      </trkpt>
      <trkpt lat="41.293122" lon="0.782140">
        <ele>441.85</ele>
        <time>2012-04-07T14:37:40Z</time>
      </trkpt>
      <trkpt lat="41.293131" lon="0.781991">
        <ele>438.60</ele>
        <time>2012-04-07T14:37:53Z</time>
      </trkpt>
      <trkpt lat="41.293158" lon="0.781839">
        <ele>432.92</ele>
        <time>2012-04-07T14:38:07Z</time>
      </trkpt>
      <trkpt lat="41.293119" lon="0.781716">
        <ele>429.63</ele>
        <time>2012-04-07T14:38:16Z</time>
      </trkpt>
      <trkpt lat="41.293158" lon="0.781659">
        <ele>426.91</ele>
        <time>2012-04-07T14:38:25Z</time>
      </trkpt>
      <trkpt lat="41.293233" lon="0.781620">
        <ele>423.79</ele>
        <time>2012-04-07T14:38:40Z</time>
      </trkpt>
      <trkpt lat="41.293321" lon="0.781635">
        <ele>421.89</ele>
        <time>2012-04-07T14:38:49Z</time>
      </trkpt>
      <trkpt lat="41.293419" lon="0.781635">
        <ele>419.14</ele>
        <time>2012-04-07T14:39:00Z</time>
      </trkpt>
      <trkpt lat="41.293512" lon="0.781629">
        <ele>415.63</ele>
        <time>2012-04-07T14:39:10Z</time>
      </trkpt>
      <trkpt lat="41.293585" lon="0.781573">
        <ele>412.12</ele>
        <time>2012-04-07T14:39:21Z</time>
      </trkpt>
      <trkpt lat="41.293666" lon="0.781469">
        <ele>409.15</ele>
        <time>2012-04-07T14:39:33Z</time>
      </trkpt>
      <trkpt lat="41.293730" lon="0.781519">
        <ele>407.10</ele>
        <time>2012-04-07T14:39:52Z</time>
      </trkpt>
      <trkpt lat="41.294091" lon="0.781565">
        <ele>399.34</ele>
        <time>2012-04-07T14:40:47Z</time>
      </trkpt>
      <trkpt lat="41.294090" lon="0.781543">
        <ele>420.56</ele>
        <time>2011-07-27T08:50:39.70Z</time>
      </trkpt>
      <trkpt lat="41.294184" lon="0.781187">
        <ele>419.02</ele>
        <time>2011-07-27T08:50:41.59Z</time>
      </trkpt>
      <trkpt lat="41.294321" lon="0.780914">
        <ele>419.98</ele>
        <time>2011-07-27T08:50:43.23Z</time>
      </trkpt>
      <trkpt lat="41.294406" lon="0.780663">
        <ele>418.17</ele>
        <time>2011-07-27T08:50:44.61Z</time>
      </trkpt>
      <trkpt lat="41.294499" lon="0.780441">
        <ele>415.90</ele>
        <time>2011-07-27T08:50:45.89Z</time>
      </trkpt>
      <trkpt lat="41.294604" lon="0.780300">
        <ele>414.68</ele>
        <time>2011-07-27T08:50:46.88Z</time>
      </trkpt>
      <trkpt lat="41.294739" lon="0.779983">
        <ele>409.42</ele>
        <time>2011-07-27T08:50:48.71Z</time>
      </trkpt>
      <trkpt lat="41.295122" lon="0.779283">
        <ele>405.00</ele>
        <time>2011-07-27T08:50:53.04Z</time>
      </trkpt>
      <trkpt lat="41.295430" lon="0.779135">
        <ele>406.31</ele>
        <time>2011-07-27T08:50:55.23Z</time>
      </trkpt>
      <trkpt lat="41.296065" lon="0.778851">
        <ele>416.41</ele>
        <time>2011-07-27T08:50:59.69Z</time>
      </trkpt>
      <trkpt lat="41.296323" lon="0.778542">
        <ele>423.83</ele>
        <time>2011-07-27T08:51:02.01Z</time>
      </trkpt>
      <trkpt lat="41.296561" lon="0.778159">
        <ele>427.33</ele>
        <time>2011-07-27T08:51:04.50Z</time>
      </trkpt>
      <trkpt lat="41.296748" lon="0.777590">
        <ele>421.11</ele>
        <time>2011-07-27T08:51:07.61Z</time>
      </trkpt>
      <trkpt lat="41.296924" lon="0.776921">
        <ele>426.94</ele>
        <time>2011-07-27T08:51:11.16Z</time>
      </trkpt>
      <trkpt lat="41.296990" lon="0.776431">
        <ele>434.04</ele>
        <time>2011-07-27T08:51:13.65Z</time>
      </trkpt>
      <trkpt lat="41.296973" lon="0.776057">
        <ele>439.65</ele>
        <time>2011-07-27T08:51:15.53Z</time>
      </trkpt>
      <trkpt lat="41.296823" lon="0.775599">
        <ele>439.20</ele>
        <time>2011-07-27T08:51:18.03Z</time>
      </trkpt>
      <trkpt lat="41.296622" lon="0.775431">
        <ele>431.90</ele>
        <time>2011-07-27T08:51:19.61Z</time>
      </trkpt>
      <trkpt lat="41.296567" lon="0.775046">
        <ele>433.35</ele>
        <time>2011-07-27T08:51:21.57Z</time>
      </trkpt>
      <trkpt lat="41.296343" lon="0.774678">
        <ele>422.10</ele>
        <time>2011-07-27T08:51:23.95Z</time>
      </trkpt>
      <trkpt lat="41.296210" lon="0.774633">
        <ele>416.31</ele>
        <time>2011-07-27T08:51:24.86Z</time>
      </trkpt>
      <trkpt lat="41.296182" lon="0.774171">
        <ele>413.41</ele>
        <time>2011-07-27T08:51:27.18Z</time>
      </trkpt>
      <trkpt lat="41.296071" lon="0.773762">
        <ele>403.72</ele>
        <time>2011-07-27T08:51:29.36Z</time>
      </trkpt>
      <trkpt lat="41.296108" lon="0.773261">
        <ele>400.00</ele>
        <time>2011-07-27T08:51:31.88Z</time>
      </trkpt>
      <trkpt lat="41.296490" lon="0.772998">
        <ele>403.78</ele>
        <time>2011-07-27T08:51:34.75Z</time>
      </trkpt>
      <trkpt lat="41.296759" lon="0.772751">
        <ele>401.92</ele>
        <time>2011-07-27T08:51:36.93Z</time>
      </trkpt>
      <trkpt lat="41.297145" lon="0.772725">
        <ele>408.19</ele>
        <time>2011-07-27T08:51:39.51Z</time>
      </trkpt>
      <trkpt lat="41.297508" lon="0.772513">
        <ele>407.80</ele>
        <time>2011-07-27T08:51:42.15Z</time>
      </trkpt>
      <trkpt lat="41.297758" lon="0.772280">
        <ele>414.44</ele>
        <time>2011-07-27T08:51:44.18Z</time>
      </trkpt>
      <trkpt lat="41.297926" lon="0.772174">
        <ele>420.65</ele>
        <time>2011-07-27T08:51:45.42Z</time>
      </trkpt>
      <trkpt lat="41.298000" lon="0.771883">
        <ele>424.35</ele>
        <time>2011-07-27T08:51:46.96Z</time>
      </trkpt>
      <trkpt lat="41.298017" lon="0.771650">
        <ele>425.90</ele>
        <time>2011-07-27T08:51:48.13Z</time>
      </trkpt>
      <trkpt lat="41.297967" lon="0.771450">
        <ele>425.01</ele>
        <time>2011-07-27T08:51:49.19Z</time>
      </trkpt>
      <trkpt lat="41.298000" lon="0.771167">
        <ele>429.01</ele>
        <time>2011-07-27T08:51:50.62Z</time>
      </trkpt>
      <trkpt lat="41.297950" lon="0.770850">
        <ele>428.97</ele>
        <time>2011-07-27T08:51:52.25Z</time>
      </trkpt>
      <trkpt lat="41.297850" lon="0.770517">
        <ele>424.80</ele>
        <time>2011-07-27T08:51:54.04Z</time>
      </trkpt>
      <trkpt lat="41.297733" lon="0.770317">
        <ele>419.47</ele>
        <time>2011-07-27T08:51:55.31Z</time>
      </trkpt>
      <trkpt lat="41.297600" lon="0.769983">
        <ele>414.59</ele>
        <time>2011-07-27T08:51:57.20Z</time>
      </trkpt>
      <trkpt lat="41.297467" lon="0.769750">
        <ele>412.52</ele>
        <time>2011-07-27T08:51:58.67Z</time>
      </trkpt>
      <trkpt lat="41.297233" lon="0.769517">
        <ele>410.92</ele>
        <time>2011-07-27T08:52:00.62Z</time>
      </trkpt>
      <trkpt lat="41.297067" lon="0.769400">
        <ele>408.31</ele>
        <time>2011-07-27T08:52:01.87Z</time>
      </trkpt>
      <trkpt lat="41.296833" lon="0.769250">
        <ele>403.32</ele>
        <time>2011-07-27T08:52:03.60Z</time>
      </trkpt>
      <trkpt lat="41.296483" lon="0.769083">
        <ele>399.81</ele>
        <time>2011-07-27T08:52:06.08Z</time>
      </trkpt>
      <trkpt lat="41.296317" lon="0.768967">
        <ele>400.35</ele>
        <time>2011-07-27T08:52:07.33Z</time>
      </trkpt>
      <trkpt lat="41.296155" lon="0.768807">
        <ele>400.41</ele>
        <time>2011-07-27T08:52:08.68Z</time>
      </trkpt>
      <trkpt lat="41.296099" lon="0.768680">
        <ele>400.81</ele>
        <time>2011-07-27T08:52:09.41Z</time>
      </trkpt>
      <trkpt lat="41.296056" lon="0.768604">
        <ele>400.88</ele>
        <time>2011-07-27T08:52:09.89Z</time>
      </trkpt>
      <trkpt lat="41.295983" lon="0.768533">
        <ele>400.02</ele>
        <time>2011-07-27T08:52:10.49Z</time>
      </trkpt>
      <trkpt lat="41.295900" lon="0.768450">
        <ele>399.02</ele>
        <time>2011-07-27T08:52:11.18Z</time>
      </trkpt>
      <trkpt lat="41.295817" lon="0.768383">
        <ele>397.87</ele>
        <time>2011-07-27T08:52:11.83Z</time>
      </trkpt>
      <trkpt lat="41.295300" lon="0.767850">
        <ele>398.83</ele>
        <time>2011-07-27T08:52:16.19Z</time>
      </trkpt>
      <trkpt lat="41.294933" lon="0.767567">
        <ele>400.67</ele>
        <time>2011-07-27T08:52:19.02Z</time>
      </trkpt>
      <trkpt lat="41.294717" lon="0.767400">
        <ele>401.69</ele>
        <time>2011-07-27T08:52:20.68Z</time>
      </trkpt>
      <trkpt lat="41.294500" lon="0.767200">
        <ele>404.16</ele>
        <time>2011-07-27T08:52:22.44Z</time>
      </trkpt>
      <trkpt lat="41.294283" lon="0.767033">
        <ele>405.59</ele>
        <time>2011-07-27T08:52:24.12Z</time>
      </trkpt>
      <trkpt lat="41.294067" lon="0.766900">
        <ele>405.52</ele>
        <time>2011-07-27T08:52:25.70Z</time>
      </trkpt>
      <trkpt lat="41.293883" lon="0.766800">
        <ele>404.23</ele>
        <time>2011-07-27T08:52:27.03Z</time>
      </trkpt>
      <trkpt lat="41.293683" lon="0.766650">
        <ele>402.81</ele>
        <time>2011-07-27T08:52:28.56Z</time>
      </trkpt>
      <trkpt lat="41.293483" lon="0.766517">
        <ele>402.34</ele>
        <time>2011-07-27T08:52:30.05Z</time>
      </trkpt>
      <trkpt lat="41.293267" lon="0.766350">
        <ele>403.47</ele>
        <time>2011-07-27T08:52:31.71Z</time>
      </trkpt>
      <trkpt lat="41.293100" lon="0.766267">
        <ele>403.63</ele>
        <time>2011-07-27T08:52:32.90Z</time>
      </trkpt>
      <trkpt lat="41.292900" lon="0.766183">
        <ele>402.74</ele>
        <time>2011-07-27T08:52:34.30Z</time>
      </trkpt>
      <trkpt lat="41.292767" lon="0.766133">
        <ele>401.86</ele>
        <time>2011-07-27T08:52:35.22Z</time>
      </trkpt>
      <trkpt lat="41.292667" lon="0.765900">
        <ele>404.59</ele>
        <time>2011-07-27T08:52:36.57Z</time>
      </trkpt>
      <trkpt lat="41.292533" lon="0.765617">
        <ele>411.92</ele>
        <time>2011-07-27T08:52:38.24Z</time>
      </trkpt>
      <trkpt lat="41.292417" lon="0.765517">
        <ele>414.17</ele>
        <time>2011-07-27T08:52:39.16Z</time>
      </trkpt>
      <trkpt lat="41.292250" lon="0.765367">
        <ele>416.67</ele>
        <time>2011-07-27T08:52:40.51Z</time>
      </trkpt>
      <trkpt lat="41.292083" lon="0.765333">
        <ele>414.71</ele>
        <time>2011-07-27T08:52:41.63Z</time>
      </trkpt>
      <trkpt lat="41.291917" lon="0.765300">
        <ele>412.21</ele>
        <time>2011-07-27T08:52:42.75Z</time>
      </trkpt>
      <trkpt lat="41.291783" lon="0.765217">
        <ele>412.61</ele>
        <time>2011-07-27T08:52:43.74Z</time>
      </trkpt>
      <trkpt lat="41.291567" lon="0.765183">
        <ele>409.18</ele>
        <time>2011-07-27T08:52:45.19Z</time>
      </trkpt>
      <trkpt lat="41.291533" lon="0.765117">
        <ele>410.46</ele>
        <time>2011-07-27T08:52:45.59Z</time>
      </trkpt>
      <trkpt lat="41.291333" lon="0.765117">
        <ele>406.43</ele>
        <time>2011-07-27T08:52:46.92Z</time>
      </trkpt>
      <trkpt lat="41.291200" lon="0.765100">
        <ele>404.36</ele>
        <time>2011-07-27T08:52:47.81Z</time>
      </trkpt>
      <trkpt lat="41.291033" lon="0.765067">
        <ele>401.43</ele>
        <time>2011-07-27T08:52:48.94Z</time>
      </trkpt>
      <trkpt lat="41.290917" lon="0.765050">
        <ele>399.17</ele>
        <time>2011-07-27T08:52:49.71Z</time>
      </trkpt>
      <trkpt lat="41.290917" lon="0.765267">
        <ele>395.73</ele>
        <time>2011-07-27T08:52:50.80Z</time>
      </trkpt>
      <trkpt lat="41.290850" lon="0.765367">
        <ele>393.07</ele>
        <time>2011-07-27T08:52:51.47Z</time>
      </trkpt>
      <trkpt lat="41.290850" lon="0.765517">
        <ele>390.99</ele>
        <time>2011-07-27T08:52:52.22Z</time>
      </trkpt>
      <trkpt lat="41.290850" lon="0.765567">
        <ele>390.17</ele>
        <time>2011-07-27T08:52:52.47Z</time>
      </trkpt>
      <trkpt lat="41.290850" lon="0.765683">
        <ele>388.42</ele>
        <time>2011-07-27T08:52:53.06Z</time>
      </trkpt>
      <trkpt lat="41.290917" lon="0.765750">
        <ele>387.81</ele>
        <time>2011-07-27T08:52:53.61Z</time>
      </trkpt>
      <trkpt lat="41.290883" lon="0.765850">
        <ele>386.53</ele>
        <time>2011-07-27T08:52:54.16Z</time>
      </trkpt>
      <trkpt lat="41.290750" lon="0.765882">
        <ele>387.10</ele>
        <time>2011-07-27T08:52:55.06Z</time>
      </trkpt>
      <trkpt lat="41.290703" lon="0.765777">
        <ele>387.16</ele>
        <time>2011-07-27T08:52:55.68Z</time>
      </trkpt>
      <trkpt lat="41.290617" lon="0.765817">
        <ele>386.81</ele>
        <time>2011-07-27T08:52:56.28Z</time>
      </trkpt>
      <trkpt lat="41.290523" lon="0.765830">
        <ele>386.95</ele>
        <time>2011-07-27T08:52:56.91Z</time>
      </trkpt>
      <trkpt lat="41.290493" lon="0.765786">
        <ele>387.22</ele>
        <time>2011-07-27T08:52:57.21Z</time>
      </trkpt>
      <trkpt lat="41.290467" lon="0.765733">
        <ele>387.73</ele>
        <time>2011-07-27T08:52:57.53Z</time>
      </trkpt>
      <trkpt lat="41.290378" lon="0.765639">
        <ele>388.24</ele>
        <time>2011-07-27T08:52:58.29Z</time>
      </trkpt>
      <trkpt lat="41.290301" lon="0.765561">
        <ele>388.57</ele>
        <time>2011-07-27T08:52:58.93Z</time>
      </trkpt>
      <trkpt lat="41.290233" lon="0.765483">
        <ele>388.63</ele>
        <time>2011-07-27T08:52:59.53Z</time>
      </trkpt>
      <trkpt lat="41.290133" lon="0.765400">
        <ele>388.32</ele>
        <time>2011-07-27T08:53:00.32Z</time>
      </trkpt>
      <trkpt lat="41.290100" lon="0.765333">
        <ele>388.11</ele>
        <time>2011-07-27T08:53:00.72Z</time>
      </trkpt>
      <trkpt lat="41.290017" lon="0.765267">
        <ele>387.58</ele>
        <time>2011-07-27T08:53:01.36Z</time>
      </trkpt>
      <trkpt lat="41.289967" lon="0.765217">
        <ele>387.60</ele>
        <time>2011-07-27T08:53:01.78Z</time>
      </trkpt>
      <trkpt lat="41.289900" lon="0.765100">
        <ele>387.83</ele>
        <time>2011-07-27T08:53:02.52Z</time>
      </trkpt>
      <trkpt lat="41.289817" lon="0.764967">
        <ele>388.03</ele>
        <time>2011-07-27T08:53:03.38Z</time>
      </trkpt>
      <trkpt lat="41.289817" lon="0.764850">
        <ele>388.49</ele>
        <time>2011-07-27T08:53:03.97Z</time>
      </trkpt>
      <trkpt lat="41.289783" lon="0.764650">
        <ele>389.10</ele>
        <time>2011-07-27T08:53:04.99Z</time>
      </trkpt>
      <trkpt lat="41.289717" lon="0.764467">
        <ele>389.24</ele>
        <time>2011-07-27T08:53:06.01Z</time>
      </trkpt>
      <trkpt lat="41.289650" lon="0.764250">
        <ele>388.87</ele>
        <time>2011-07-27T08:53:07.19Z</time>
      </trkpt>
      <trkpt lat="41.289633" lon="0.764100">
        <ele>388.71</ele>
        <time>2011-07-27T08:53:07.95Z</time>
      </trkpt>
      <trkpt lat="41.289567" lon="0.763900">
        <ele>387.82</ele>
        <time>2011-07-27T08:53:09.04Z</time>
      </trkpt>
      <trkpt lat="41.289450" lon="0.763750">
        <ele>385.90</ele>
        <time>2011-07-27T08:53:10.12Z</time>
      </trkpt>
      <trkpt lat="41.289300" lon="0.763650">
        <ele>383.31</ele>
        <time>2011-07-27T08:53:11.24Z</time>
      </trkpt>
      <trkpt lat="41.289267" lon="0.763517">
        <ele>382.47</ele>
        <time>2011-07-27T08:53:11.94Z</time>
      </trkpt>
      <trkpt lat="41.289150" lon="0.763417">
        <ele>380.69</ele>
        <time>2011-07-27T08:53:12.87Z</time>
      </trkpt>
      <trkpt lat="41.289067" lon="0.763317">
        <ele>382.06</ele>
        <time>2011-07-27T08:53:13.62Z</time>
      </trkpt>
      <trkpt lat="41.288983" lon="0.763200">
        <ele>383.94</ele>
        <time>2011-07-27T08:53:14.43Z</time>
      </trkpt>
      <trkpt lat="41.288850" lon="0.763150">
        <ele>385.96</ele>
        <time>2011-07-27T08:53:15.35Z</time>
      </trkpt>
      <trkpt lat="41.288700" lon="0.763100">
        <ele>387.65</ele>
        <time>2011-07-27T08:53:16.38Z</time>
      </trkpt>
      <trkpt lat="41.288550" lon="0.763117">
        <ele>389.62</ele>
        <time>2011-07-27T08:53:17.38Z</time>
      </trkpt>
      <trkpt lat="41.288383" lon="0.763167">
        <ele>392.47</ele>
        <time>2011-07-27T08:53:18.52Z</time>
      </trkpt>
      <trkpt lat="41.288267" lon="0.763100">
        <ele>393.56</ele>
        <time>2011-07-27T08:53:19.37Z</time>
      </trkpt>
      <trkpt lat="41.288150" lon="0.763083">
        <ele>395.60</ele>
        <time>2011-07-27T08:53:20.15Z</time>
      </trkpt>
      <trkpt lat="41.288017" lon="0.762917">
        <ele>395.42</ele>
        <time>2011-07-27T08:53:21.37Z</time>
      </trkpt>
      <trkpt lat="41.287967" lon="0.762800">
        <ele>394.11</ele>
        <time>2011-07-27T08:53:22.04Z</time>
      </trkpt>
      <trkpt lat="41.287988" lon="0.762660">
        <ele>390.98</ele>
        <time>2011-07-27T08:53:22.76Z</time>
      </trkpt>
      <trkpt lat="41.288063" lon="0.762559">
        <ele>387.60</ele>
        <time>2011-07-27T08:53:23.47Z</time>
      </trkpt>
      <trkpt lat="41.288083" lon="0.762417">
        <ele>386.29</ele>
        <time>2011-07-27T08:53:24.19Z</time>
      </trkpt>
      <trkpt lat="41.288083" lon="0.762283">
        <ele>386.13</ele>
        <time>2011-07-27T08:53:24.86Z</time>
      </trkpt>
      <trkpt lat="41.288000" lon="0.762150">
        <ele>386.71</ele>
        <time>2011-07-27T08:53:25.73Z</time>
      </trkpt>
      <trkpt lat="41.287967" lon="0.762067">
        <ele>386.86</ele>
        <time>2011-07-27T08:53:26.20Z</time>
      </trkpt>
      <trkpt lat="41.287867" lon="0.762017">
        <ele>387.33</ele>
        <time>2011-07-27T08:53:26.91Z</time>
      </trkpt>
      <trkpt lat="41.287783" lon="0.761967">
        <ele>387.52</ele>
        <time>2011-07-27T08:53:27.53Z</time>
      </trkpt>
      <trkpt lat="41.287717" lon="0.761867">
        <ele>386.94</ele>
        <time>2011-07-27T08:53:28.19Z</time>
      </trkpt>
      <trkpt lat="41.287617" lon="0.761700">
        <ele>385.48</ele>
        <time>2011-07-27T08:53:29.26Z</time>
      </trkpt>
      <trkpt lat="41.287567" lon="0.761467">
        <ele>384.11</ele>
        <time>2011-07-27T08:53:30.48Z</time>
      </trkpt>
      <trkpt lat="41.287500" lon="0.761067">
        <ele>381.41</ele>
        <time>2011-07-27T08:53:32.53Z</time>
      </trkpt>
      <trkpt lat="41.287467" lon="0.760833">
        <ele>381.05</ele>
        <time>2011-07-27T08:53:33.72Z</time>
      </trkpt>
      <trkpt lat="41.287483" lon="0.760600">
        <ele>381.49</ele>
        <time>2011-07-27T08:53:34.89Z</time>
      </trkpt>
      <trkpt lat="41.287617" lon="0.760183">
        <ele>383.07</ele>
        <time>2011-07-27T08:53:37.17Z</time>
      </trkpt>
      <trkpt lat="41.287783" lon="0.759800">
        <ele>387.02</ele>
        <time>2011-07-27T08:53:39.38Z</time>
      </trkpt>
      <trkpt lat="41.288017" lon="0.759417">
        <ele>388.49</ele>
        <time>2011-07-27T08:53:41.85Z</time>
      </trkpt>
      <trkpt lat="41.288283" lon="0.759067">
        <ele>382.33</ele>
        <time>2011-07-27T08:53:44.35Z</time>
      </trkpt>
      <trkpt lat="41.288450" lon="0.758933">
        <ele>384.72</ele>
        <time>2011-07-27T08:53:45.65Z</time>
      </trkpt>
      <trkpt lat="41.288667" lon="0.758833">
        <ele>391.93</ele>
        <time>2011-07-27T08:53:47.18Z</time>
      </trkpt>
      <trkpt lat="41.288683" lon="0.758767">
        <ele>392.33</ele>
        <time>2011-07-27T08:53:47.53Z</time>
      </trkpt>
      <trkpt lat="41.288667" lon="0.758533">
        <ele>391.59</ele>
        <time>2011-07-27T08:53:48.70Z</time>
      </trkpt>
      <trkpt lat="41.288583" lon="0.758133">
        <ele>389.02</ele>
        <time>2011-07-27T08:53:50.78Z</time>
      </trkpt>
      <trkpt lat="41.288500" lon="0.757867">
        <ele>386.81</ele>
        <time>2011-07-27T08:53:52.23Z</time>
      </trkpt>
      <trkpt lat="41.288417" lon="0.757733">
        <ele>383.99</ele>
        <time>2011-07-27T08:53:53.10Z</time>
      </trkpt>
      <trkpt lat="41.288350" lon="0.757633">
        <ele>381.51</ele>
        <time>2011-07-27T08:53:53.77Z</time>
      </trkpt>
      <trkpt lat="41.288233" lon="0.757633">
        <ele>383.12</ele>
        <time>2011-07-27T08:53:54.55Z</time>
      </trkpt>
      <trkpt lat="41.288139" lon="0.757477">
        <ele>384.72</ele>
        <time>2011-07-27T08:53:55.55Z</time>
      </trkpt>
      <trkpt lat="41.288050" lon="0.757420">
        <ele>386.41</ele>
        <time>2011-07-27T08:53:56.21Z</time>
      </trkpt>
      <trkpt lat="41.287950" lon="0.757317">
        <ele>387.57</ele>
        <time>2011-07-27T08:53:57.05Z</time>
      </trkpt>
      <trkpt lat="41.287827" lon="0.757104">
        <ele>387.38</ele>
        <time>2011-07-27T08:53:58.40Z</time>
      </trkpt>
      <trkpt lat="41.287729" lon="0.756955">
        <ele>386.30</ele>
        <time>2011-07-27T08:53:59.39Z</time>
      </trkpt>
      <trkpt lat="41.287655" lon="0.756768">
        <ele>383.65</ele>
        <time>2011-07-27T08:54:00.45Z</time>
      </trkpt>
      <trkpt lat="41.287541" lon="0.756620">
        <ele>381.36</ele>
        <time>2011-07-27T08:54:01.51Z</time>
      </trkpt>
      <trkpt lat="41.287456" lon="0.756450">
        <ele>381.62</ele>
        <time>2011-07-27T08:54:02.53Z</time>
      </trkpt>
      <trkpt lat="41.287352" lon="0.756303">
        <ele>383.61</ele>
        <time>2011-07-27T08:54:03.54Z</time>
      </trkpt>
      <trkpt lat="41.287285" lon="0.756166">
        <ele>384.04</ele>
        <time>2011-07-27T08:54:04.36Z</time>
      </trkpt>
      <trkpt lat="41.287133" lon="0.756083">
        <ele>386.05</ele>
        <time>2011-07-27T08:54:05.46Z</time>
      </trkpt>
      <trkpt lat="41.287000" lon="0.756133">
        <ele>389.22</ele>
        <time>2011-07-27T08:54:06.38Z</time>
      </trkpt>
      <trkpt lat="41.286933" lon="0.756183">
        <ele>391.43</ele>
        <time>2011-07-27T08:54:06.89Z</time>
      </trkpt>
      <trkpt lat="41.286883" lon="0.756200">
        <ele>392.79</ele>
        <time>2011-07-27T08:54:07.23Z</time>
      </trkpt>
      <trkpt lat="41.286808" lon="0.756304">
        <ele>396.50</ele>
        <time>2011-07-27T08:54:07.96Z</time>
      </trkpt>
      <trkpt lat="41.286740" lon="0.756367">
        <ele>399.68</ele>
        <time>2011-07-27T08:54:08.51Z</time>
      </trkpt>
      <trkpt lat="41.286741" lon="0.756254">
        <ele>396.89</ele>
        <time>2011-07-27T08:54:09.07Z</time>
      </trkpt>
      <trkpt lat="41.286587" lon="0.756425">
        <ele>403.56</ele>
        <time>2011-07-27T08:54:10.41Z</time>
      </trkpt>
      <trkpt lat="41.286370" lon="0.756417">
        <ele>409.42</ele>
        <time>2011-07-27T08:54:11.85Z</time>
      </trkpt>
      <trkpt lat="41.286150" lon="0.756533">
        <ele>410.28</ele>
        <time>2011-07-27T08:54:13.67Z</time>
      </trkpt>
      <trkpt lat="41.286083" lon="0.756533">
        <ele>410.94</ele>
        <time>2011-07-27T08:54:14.12Z</time>
      </trkpt>
      <trkpt lat="41.285871" lon="0.756499">
        <ele>409.84</ele>
        <time>2011-07-27T08:54:14.67Z</time>
      </trkpt>
      <trkpt lat="41.285950" lon="0.756367">
        <ele>408.10</ele>
        <time>2011-07-27T08:54:15.34Z</time>
      </trkpt>
      <trkpt lat="41.285917" lon="0.756317">
        <ele>406.92</ele>
        <time>2011-07-27T08:54:15.67Z</time>
      </trkpt>
      <trkpt lat="41.285769" lon="0.756163">
        <ele>405.50</ele>
        <time>2011-07-27T08:54:19.61Z</time>
      </trkpt>
      <trkpt lat="41.285633" lon="0.756517">
        <ele>407.62</ele>
        <time>2011-07-27T08:54:20.43Z</time>
      </trkpt>
      <trkpt lat="41.285600" lon="0.756617">
        <ele>409.21</ele>
        <time>2011-07-27T08:54:20.98Z</time>
      </trkpt>
      <trkpt lat="41.285533" lon="0.756700">
        <ele>408.92</ele>
        <time>2011-07-27T08:54:21.59Z</time>
      </trkpt>
      <trkpt lat="41.285500" lon="0.756767">
        <ele>409.17</ele>
        <time>2011-07-27T08:54:21.99Z</time>
      </trkpt>
      <trkpt lat="41.285333" lon="0.756783">
        <ele>404.42</ele>
        <time>2011-07-27T08:54:23.10Z</time>
      </trkpt>
      <trkpt lat="41.285300" lon="0.756667">
        <ele>401.65</ele>
        <time>2011-07-27T08:54:23.72Z</time>
      </trkpt>
      <trkpt lat="41.285267" lon="0.756550">
        <ele>398.64</ele>
        <time>2011-07-27T08:54:24.35Z</time>
      </trkpt>
      <trkpt lat="41.285233" lon="0.756400">
        <ele>395.13</ele>
        <time>2011-07-27T08:54:25.14Z</time>
      </trkpt>
      <trkpt lat="41.285184" lon="0.756147">
        <ele>389.91</ele>
        <time>2011-07-27T08:54:26.44Z</time>
      </trkpt>
      <trkpt lat="41.285150" lon="0.756083">
        <ele>388.26</ele>
        <time>2011-07-27T08:54:26.84Z</time>
      </trkpt>
      <trkpt lat="41.285133" lon="0.755933">
        <ele>385.56</ele>
        <time>2011-07-27T08:54:27.60Z</time>
      </trkpt>
      <trkpt lat="41.284917" lon="0.755917">
        <ele>382.18</ele>
        <time>2011-07-27T08:54:29.04Z</time>
      </trkpt>
    </trkseg>
  </trk>
</gpx>
